<?xml version="1.0" encoding="utf-8"?>
<gpx xmlns:xsi="http://www.w3.org/2001/XMLSchema-instance" xmlns:xsd="http://www.w3.org/2001/XMLSchema" version="1.1" creator="Shapelink.com" xmlns="http://www.topografix.com/GPX/1/1" xmlns:gpxtpx="http://www.garmin.com/xmlschemas/TrackPointExtension/v1">
  <metadata>
    <name>Kører 13.11 km, 2020-01-18</name>
    <desc></desc>
    <author><name>Per Rooth</name></author> 
    <time>2020-01-18T07:16:41Z</time>
  </metadata>
  <trk>
    <name>Kører 13.11 km, 2020-01-18</name>
    <trkseg>
      <trkpt lat="56.873296865642" lon="14.792896881619">
        <ele>174.8</ele>
        <time>2020-01-18T07:16:41Z</time>
      </trkpt>
      <trkpt lat="56.873250010821" lon="14.792890008461">
        <ele>175.6</ele>
        <time>2020-01-18T07:16:43Z</time>
      </trkpt>
      <trkpt lat="56.873230145718" lon="14.792882129475">
        <ele>177.2</ele>
        <time>2020-01-18T07:16:44Z</time>
      </trkpt>
      <trkpt lat="56.873185721648" lon="14.792869221349">
        <ele>175.6</ele>
        <time>2020-01-18T07:16:46Z</time>
      </trkpt>
      <trkpt lat="56.872986986799" lon="14.792908364822">
        <ele>176.2</ele>
        <time>2020-01-18T07:16:55Z</time>
      </trkpt>
      <trkpt lat="56.872813565288" lon="14.792974246556">
        <ele>176</ele>
        <time>2020-01-18T07:17:05Z</time>
      </trkpt>
      <trkpt lat="56.872764698811" lon="14.792991848546">
        <ele>175.8</ele>
        <time>2020-01-18T07:17:07Z</time>
      </trkpt>
      <trkpt lat="56.87257199893" lon="14.792963098629">
        <ele>176</ele>
        <time>2020-01-18T07:17:15Z</time>
      </trkpt>
      <trkpt lat="56.872371587701" lon="14.792952537435">
        <ele>176</ele>
        <time>2020-01-18T07:17:23Z</time>
      </trkpt>
      <trkpt lat="56.872272178367" lon="14.792936360368">
        <ele>175.8</ele>
        <time>2020-01-18T07:17:27Z</time>
      </trkpt>
      <trkpt lat="56.872091548422" lon="14.792951196331">
        <ele>175.6</ele>
        <time>2020-01-18T07:17:34Z</time>
      </trkpt>
      <trkpt lat="56.871920557662" lon="14.793082205428">
        <ele>176</ele>
        <time>2020-01-18T07:17:42Z</time>
      </trkpt>
      <trkpt lat="56.87185534648" lon="14.793114559562">
        <ele>176</ele>
        <time>2020-01-18T07:17:45Z</time>
      </trkpt>
      <trkpt lat="56.871681673512" lon="14.793226793203">
        <ele>175.4</ele>
        <time>2020-01-18T07:17:53Z</time>
      </trkpt>
      <trkpt lat="56.871481932835" lon="14.793232995809">
        <ele>175.6</ele>
        <time>2020-01-18T07:18:01Z</time>
      </trkpt>
      <trkpt lat="56.871346397512" lon="14.79318345878">
        <ele>175</ele>
        <time>2020-01-18T07:18:06Z</time>
      </trkpt>
      <trkpt lat="56.871150596328" lon="14.79309880159">
        <ele>174.6</ele>
        <time>2020-01-18T07:18:14Z</time>
      </trkpt>
      <trkpt lat="56.871127043189" lon="14.793093269536">
        <ele>174.4</ele>
        <time>2020-01-18T07:18:15Z</time>
      </trkpt>
      <trkpt lat="56.870940713552" lon="14.793027639259">
        <ele>174</ele>
        <time>2020-01-18T07:18:22Z</time>
      </trkpt>
      <trkpt lat="56.870809117722" lon="14.792989166338">
        <ele>173.4</ele>
        <time>2020-01-18T07:18:27Z</time>
      </trkpt>
      <trkpt lat="56.870754048639" lon="14.792974078918">
        <ele>173.4</ele>
        <time>2020-01-18T07:18:29Z</time>
      </trkpt>
      <trkpt lat="56.870569395382" lon="14.792902916587">
        <ele>173</ele>
        <time>2020-01-18T07:18:36Z</time>
      </trkpt>
      <trkpt lat="56.870468393487" lon="14.792858576336">
        <ele>172.4</ele>
        <time>2020-01-18T07:18:40Z</time>
      </trkpt>
      <trkpt lat="56.870278208176" lon="14.792754221681">
        <ele>171.8</ele>
        <time>2020-01-18T07:18:48Z</time>
      </trkpt>
      <trkpt lat="56.870158682282" lon="14.792617848168">
        <ele>171.4</ele>
        <time>2020-01-18T07:18:51Z</time>
      </trkpt>
      <trkpt lat="56.870103948475" lon="14.792571412442">
        <ele>171.4</ele>
        <time>2020-01-18T07:18:53Z</time>
      </trkpt>
      <trkpt lat="56.870031025945" lon="14.792580045799">
        <ele>171</ele>
        <time>2020-01-18T07:18:56Z</time>
      </trkpt>
      <trkpt lat="56.869907979653" lon="14.79287249029">
        <ele>170.8</ele>
        <time>2020-01-18T07:19:04Z</time>
      </trkpt>
      <trkpt lat="56.869842600833" lon="14.793063849067">
        <ele>170.4</ele>
        <time>2020-01-18T07:19:09Z</time>
      </trkpt>
      <trkpt lat="56.86975903329" lon="14.793353443712">
        <ele>170.4</ele>
        <time>2020-01-18T07:19:16Z</time>
      </trkpt>
      <trkpt lat="56.869680411068" lon="14.793694084128">
        <ele>170.4</ele>
        <time>2020-01-18T07:19:24Z</time>
      </trkpt>
      <trkpt lat="56.869621151035" lon="14.793790643616">
        <ele>170.2</ele>
        <time>2020-01-18T07:19:27Z</time>
      </trkpt>
      <trkpt lat="56.869589886548" lon="14.79379282291">
        <ele>170.2</ele>
        <time>2020-01-18T07:19:28Z</time>
      </trkpt>
      <trkpt lat="56.869423002919" lon="14.79364446328">
        <ele>169.2</ele>
        <time>2020-01-18T07:19:34Z</time>
      </trkpt>
      <trkpt lat="56.869267183398" lon="14.793447991544">
        <ele>168.4</ele>
        <time>2020-01-18T07:19:40Z</time>
      </trkpt>
      <trkpt lat="56.869240864232" lon="14.793419157808">
        <ele>168.2</ele>
        <time>2020-01-18T07:19:41Z</time>
      </trkpt>
      <trkpt lat="56.869068532368" lon="14.793271217273">
        <ele>167.6</ele>
        <time>2020-01-18T07:19:48Z</time>
      </trkpt>
      <trkpt lat="56.868882370369" lon="14.793159486546">
        <ele>167.4</ele>
        <time>2020-01-18T07:19:55Z</time>
      </trkpt>
      <trkpt lat="56.868698639121" lon="14.793263254468">
        <ele>168.2</ele>
        <time>2020-01-18T07:20:02Z</time>
      </trkpt>
      <trkpt lat="56.868621944736" lon="14.793456457263">
        <ele>168</ele>
        <time>2020-01-18T07:20:07Z</time>
      </trkpt>
      <trkpt lat="56.868531587854" lon="14.793795253661">
        <ele>168</ele>
        <time>2020-01-18T07:20:15Z</time>
      </trkpt>
      <trkpt lat="56.868454474374" lon="14.794115777517">
        <ele>167.2</ele>
        <time>2020-01-18T07:20:22Z</time>
      </trkpt>
      <trkpt lat="56.868442739714" lon="14.794166990926">
        <ele>167.2</ele>
        <time>2020-01-18T07:20:23Z</time>
      </trkpt>
      <trkpt lat="56.868367805528" lon="14.794468571688">
        <ele>167.2</ele>
        <time>2020-01-18T07:20:30Z</time>
      </trkpt>
      <trkpt lat="56.868299660681" lon="14.794809295923">
        <ele>167.2</ele>
        <time>2020-01-18T07:20:38Z</time>
      </trkpt>
      <trkpt lat="56.868215422586" lon="14.795153121461">
        <ele>167.4</ele>
        <time>2020-01-18T07:20:46Z</time>
      </trkpt>
      <trkpt lat="56.868174435095" lon="14.795501724682">
        <ele>167.6</ele>
        <time>2020-01-18T07:20:53Z</time>
      </trkpt>
      <trkpt lat="56.868118192546" lon="14.795798192485">
        <ele>167.4</ele>
        <time>2020-01-18T07:21:00Z</time>
      </trkpt>
      <trkpt lat="56.86808013872" lon="14.795785619635">
        <ele>167.8</ele>
        <time>2020-01-18T07:21:02Z</time>
      </trkpt>
      <trkpt lat="56.868039737962" lon="14.795686964672">
        <ele>167.8</ele>
        <time>2020-01-18T07:21:05Z</time>
      </trkpt>
      <trkpt lat="56.868007132371" lon="14.795609515916">
        <ele>168.2</ele>
        <time>2020-01-18T07:21:07Z</time>
      </trkpt>
      <trkpt lat="56.867876793826" lon="14.795340289288">
        <ele>168.4</ele>
        <time>2020-01-18T07:21:14Z</time>
      </trkpt>
      <trkpt lat="56.867732457508" lon="14.79510794302">
        <ele>169</ele>
        <time>2020-01-18T07:21:21Z</time>
      </trkpt>
      <trkpt lat="56.867679651538" lon="14.794994452094">
        <ele>169.2</ele>
        <time>2020-01-18T07:21:24Z</time>
      </trkpt>
      <trkpt lat="56.867515031022" lon="14.794780713644">
        <ele>169</ele>
        <time>2020-01-18T07:21:30Z</time>
      </trkpt>
      <trkpt lat="56.867362145166" lon="14.794570411773">
        <ele>169.6</ele>
        <time>2020-01-18T07:21:38Z</time>
      </trkpt>
      <trkpt lat="56.867269860447" lon="14.794396738805">
        <ele>170.4</ele>
        <time>2020-01-18T07:21:43Z</time>
      </trkpt>
      <trkpt lat="56.867126781414" lon="14.794143270149">
        <ele>171</ele>
        <time>2020-01-18T07:21:50Z</time>
      </trkpt>
      <trkpt lat="56.866971800083" lon="14.79390178761">
        <ele>170.8</ele>
        <time>2020-01-18T07:21:58Z</time>
      </trkpt>
      <trkpt lat="56.86686392503" lon="14.793707411349">
        <ele>171.6</ele>
        <time>2020-01-18T07:22:04Z</time>
      </trkpt>
      <trkpt lat="56.866844730479" lon="14.793672458826">
        <ele>171.6</ele>
        <time>2020-01-18T07:22:05Z</time>
      </trkpt>
      <trkpt lat="56.866685809655" lon="14.793452350132">
        <ele>171.8</ele>
        <time>2020-01-18T07:22:11Z</time>
      </trkpt>
      <trkpt lat="56.866533175256" lon="14.793259231156">
        <ele>172.2</ele>
        <time>2020-01-18T07:22:18Z</time>
      </trkpt>
      <trkpt lat="56.866510795583" lon="14.793226290289">
        <ele>172.6</ele>
        <time>2020-01-18T07:22:19Z</time>
      </trkpt>
      <trkpt lat="56.86635262913" lon="14.793052449683">
        <ele>171.8</ele>
        <time>2020-01-18T07:22:27Z</time>
      </trkpt>
      <trkpt lat="56.866332177294" lon="14.793033087494">
        <ele>172</ele>
        <time>2020-01-18T07:22:28Z</time>
      </trkpt>
      <trkpt lat="56.866237042729" lon="14.79297810223">
        <ele>171.6</ele>
        <time>2020-01-18T07:22:32Z</time>
      </trkpt>
      <trkpt lat="56.866064459408" lon="14.792878022344">
        <ele>171.6</ele>
        <time>2020-01-18T07:22:38Z</time>
      </trkpt>
      <trkpt lat="56.865889361517" lon="14.792779786476">
        <ele>171</ele>
        <time>2020-01-18T07:22:44Z</time>
      </trkpt>
      <trkpt lat="56.865702864242" lon="14.792707031584">
        <ele>170.4</ele>
        <time>2020-01-18T07:22:50Z</time>
      </trkpt>
      <trkpt lat="56.865514858225" lon="14.792588008604">
        <ele>169.8</ele>
        <time>2020-01-18T07:22:57Z</time>
      </trkpt>
      <trkpt lat="56.865490885991" lon="14.792574178469">
        <ele>169.4</ele>
        <time>2020-01-18T07:22:58Z</time>
      </trkpt>
      <trkpt lat="56.865355266849" lon="14.7925196123">
        <ele>168.2</ele>
        <time>2020-01-18T07:23:02Z</time>
      </trkpt>
      <trkpt lat="56.865166422642" lon="14.792426321753">
        <ele>167</ele>
        <time>2020-01-18T07:23:07Z</time>
      </trkpt>
      <trkpt lat="56.864999622832" lon="14.792267820024">
        <ele>167.2</ele>
        <time>2020-01-18T07:23:13Z</time>
      </trkpt>
      <trkpt lat="56.864853274858" lon="14.792054752126">
        <ele>167</ele>
        <time>2020-01-18T07:23:19Z</time>
      </trkpt>
      <trkpt lat="56.864717571897" lon="14.791861549331">
        <ele>167.8</ele>
        <time>2020-01-18T07:23:25Z</time>
      </trkpt>
      <trkpt lat="56.86466786723" lon="14.79170824438">
        <ele>168.2</ele>
        <time>2020-01-18T07:23:29Z</time>
      </trkpt>
      <trkpt lat="56.864570972466" lon="14.791420661391">
        <ele>169.2</ele>
        <time>2020-01-18T07:23:36Z</time>
      </trkpt>
      <trkpt lat="56.864515484288" lon="14.791075578568">
        <ele>169.6</ele>
        <time>2020-01-18T07:23:43Z</time>
      </trkpt>
      <trkpt lat="56.864509030225" lon="14.791004919151">
        <ele>169.4</ele>
        <time>2020-01-18T07:23:44Z</time>
      </trkpt>
      <trkpt lat="56.86445664335" lon="14.790860415195">
        <ele>169.2</ele>
        <time>2020-01-18T07:23:48Z</time>
      </trkpt>
      <trkpt lat="56.864319431647" lon="14.790792689443">
        <ele>169.4</ele>
        <time>2020-01-18T07:23:57Z</time>
      </trkpt>
      <trkpt lat="56.864297051974" lon="14.790793443814">
        <ele>169.2</ele>
        <time>2020-01-18T07:23:59Z</time>
      </trkpt>
      <trkpt lat="56.864222369245" lon="14.790831916735">
        <ele>169.2</ele>
        <time>2020-01-18T07:24:03Z</time>
      </trkpt>
      <trkpt lat="56.864197810278" lon="14.790839963359">
        <ele>169</ele>
        <time>2020-01-18T07:24:05Z</time>
      </trkpt>
      <trkpt lat="56.86412723468" lon="14.790849267268">
        <ele>169</ele>
        <time>2020-01-18T07:24:09Z</time>
      </trkpt>
      <trkpt lat="56.863995974126" lon="14.790807106311">
        <ele>169</ele>
        <time>2020-01-18T07:24:16Z</time>
      </trkpt>
      <trkpt lat="56.863947275287" lon="14.790787408846">
        <ele>169.2</ele>
        <time>2020-01-18T07:24:18Z</time>
      </trkpt>
      <trkpt lat="56.863898492629" lon="14.790781541516">
        <ele>169.4</ele>
        <time>2020-01-18T07:24:20Z</time>
      </trkpt>
      <trkpt lat="56.863845016107" lon="14.790779865136">
        <ele>169.6</ele>
        <time>2020-01-18T07:24:22Z</time>
      </trkpt>
      <trkpt lat="56.863724484385" lon="14.790734602876">
        <ele>170</ele>
        <time>2020-01-18T07:24:27Z</time>
      </trkpt>
      <trkpt lat="56.863593642926" lon="14.790709792452">
        <ele>170.4</ele>
        <time>2020-01-18T07:24:32Z</time>
      </trkpt>
      <trkpt lat="56.863418712673" lon="14.790801993352">
        <ele>170.6</ele>
        <time>2020-01-18T07:24:38Z</time>
      </trkpt>
      <trkpt lat="56.863266078274" lon="14.791008104273">
        <ele>170.2</ele>
        <time>2020-01-18T07:24:44Z</time>
      </trkpt>
      <trkpt lat="56.863106570717" lon="14.791218489963">
        <ele>170.6</ele>
        <time>2020-01-18T07:24:50Z</time>
      </trkpt>
      <trkpt lat="56.862970783937" lon="14.791484196193">
        <ele>170.4</ele>
        <time>2020-01-18T07:24:57Z</time>
      </trkpt>
      <trkpt lat="56.862854946079" lon="14.791769683707">
        <ele>170</ele>
        <time>2020-01-18T07:25:05Z</time>
      </trkpt>
      <trkpt lat="56.862709101019" lon="14.792013177902">
        <ele>169.6</ele>
        <time>2020-01-18T07:25:11Z</time>
      </trkpt>
      <trkpt lat="56.862678423265" lon="14.792064391311">
        <ele>169.4</ele>
        <time>2020-01-18T07:25:12Z</time>
      </trkpt>
      <trkpt lat="56.862525788866" lon="14.792312998465">
        <ele>169.2</ele>
        <time>2020-01-18T07:25:18Z</time>
      </trkpt>
      <trkpt lat="56.862506594315" lon="14.792351303748">
        <ele>169.4</ele>
        <time>2020-01-18T07:25:19Z</time>
      </trkpt>
      <trkpt lat="56.862359827246" lon="14.792589936441">
        <ele>169.4</ele>
        <time>2020-01-18T07:25:25Z</time>
      </trkpt>
      <trkpt lat="56.862232254728" lon="14.792838208319">
        <ele>169.2</ele>
        <time>2020-01-18T07:25:31Z</time>
      </trkpt>
      <trkpt lat="56.862090768256" lon="14.793106596757">
        <ele>169</ele>
        <time>2020-01-18T07:25:37Z</time>
      </trkpt>
      <trkpt lat="56.861961519358" lon="14.793374901376">
        <ele>168.8</ele>
        <time>2020-01-18T07:25:43Z</time>
      </trkpt>
      <trkpt lat="56.861822966551" lon="14.793649576239">
        <ele>168.8</ele>
        <time>2020-01-18T07:25:49Z</time>
      </trkpt>
      <trkpt lat="56.861769992943" lon="14.793781507345">
        <ele>169.2</ele>
        <time>2020-01-18T07:25:52Z</time>
      </trkpt>
      <trkpt lat="56.861684581382" lon="14.794106222151">
        <ele>169.4</ele>
        <time>2020-01-18T07:26:00Z</time>
      </trkpt>
      <trkpt lat="56.861569330257" lon="14.794385507059">
        <ele>169.8</ele>
        <time>2020-01-18T07:26:07Z</time>
      </trkpt>
      <trkpt lat="56.86142323374" lon="14.794649620728">
        <ele>169.4</ele>
        <time>2020-01-18T07:26:14Z</time>
      </trkpt>
      <trkpt lat="56.86128074144" lon="14.794938293364">
        <ele>169.8</ele>
        <time>2020-01-18T07:26:21Z</time>
      </trkpt>
      <trkpt lat="56.861175716233" lon="14.795111631056">
        <ele>170</ele>
        <time>2020-01-18T07:26:25Z</time>
      </trkpt>
      <trkpt lat="56.861056441796" lon="14.795434753301">
        <ele>169.6</ele>
        <time>2020-01-18T07:26:31Z</time>
      </trkpt>
      <trkpt lat="56.860991901166" lon="14.795757204994">
        <ele>169</ele>
        <time>2020-01-18T07:26:37Z</time>
      </trkpt>
      <trkpt lat="56.861010592803" lon="14.795918137474">
        <ele>168.2</ele>
        <time>2020-01-18T07:26:40Z</time>
      </trkpt>
      <trkpt lat="56.861042108747" lon="14.79608862532">
        <ele>167.8</ele>
        <time>2020-01-18T07:26:44Z</time>
      </trkpt>
      <trkpt lat="56.861067422085" lon="14.796163308049">
        <ele>168</ele>
        <time>2020-01-18T07:26:46Z</time>
      </trkpt>
      <trkpt lat="56.861089466482" lon="14.796298005182">
        <ele>167.2</ele>
        <time>2020-01-18T07:26:50Z</time>
      </trkpt>
      <trkpt lat="56.86119356968" lon="14.796558514634">
        <ele>166</ele>
        <time>2020-01-18T07:26:56Z</time>
      </trkpt>
      <trkpt lat="56.861334972333" lon="14.796774683835">
        <ele>165.2</ele>
        <time>2020-01-18T07:27:02Z</time>
      </trkpt>
      <trkpt lat="56.861479727746" lon="14.796934861944">
        <ele>165</ele>
        <time>2020-01-18T07:27:06Z</time>
      </trkpt>
      <trkpt lat="56.861646024642" lon="14.797155054457">
        <ele>164.2</ele>
        <time>2020-01-18T07:27:13Z</time>
      </trkpt>
      <trkpt lat="56.861697824784" lon="14.797215739413">
        <ele>164</ele>
        <time>2020-01-18T07:27:16Z</time>
      </trkpt>
      <trkpt lat="56.861741913578" lon="14.797300145146">
        <ele>164</ele>
        <time>2020-01-18T07:27:19Z</time>
      </trkpt>
      <trkpt lat="56.861895050891" lon="14.797536933821">
        <ele>164</ele>
        <time>2020-01-18T07:27:25Z</time>
      </trkpt>
      <trkpt lat="56.862044081073" lon="14.797797191816">
        <ele>164</ele>
        <time>2020-01-18T07:27:32Z</time>
      </trkpt>
      <trkpt lat="56.862060174321" lon="14.797908838724">
        <ele>164</ele>
        <time>2020-01-18T07:27:34Z</time>
      </trkpt>
      <trkpt lat="56.861974008389" lon="14.798203797785">
        <ele>163.4</ele>
        <time>2020-01-18T07:27:40Z</time>
      </trkpt>
      <trkpt lat="56.861840484722" lon="14.798483082693">
        <ele>164.6</ele>
        <time>2020-01-18T07:27:47Z</time>
      </trkpt>
      <trkpt lat="56.861723473398" lon="14.798751303493">
        <ele>163.8</ele>
        <time>2020-01-18T07:27:53Z</time>
      </trkpt>
      <trkpt lat="56.861638732389" lon="14.799079035783">
        <ele>163.6</ele>
        <time>2020-01-18T07:27:59Z</time>
      </trkpt>
      <trkpt lat="56.861575532863" lon="14.799403163856">
        <ele>164</ele>
        <time>2020-01-18T07:28:05Z</time>
      </trkpt>
      <trkpt lat="56.861502526514" lon="14.799716479278">
        <ele>163.8</ele>
        <time>2020-01-18T07:28:11Z</time>
      </trkpt>
      <trkpt lat="56.861422479369" lon="14.8000549404">
        <ele>163.8</ele>
        <time>2020-01-18T07:28:17Z</time>
      </trkpt>
      <trkpt lat="56.861335056152" lon="14.800350402375">
        <ele>164.2</ele>
        <time>2020-01-18T07:28:23Z</time>
      </trkpt>
      <trkpt lat="56.861265570201" lon="14.80067939195">
        <ele>164</ele>
        <time>2020-01-18T07:28:29Z</time>
      </trkpt>
      <trkpt lat="56.861180745373" lon="14.800976195029">
        <ele>164</ele>
        <time>2020-01-18T07:28:35Z</time>
      </trkpt>
      <trkpt lat="56.861099105667" lon="14.801299484912">
        <ele>164</ele>
        <time>2020-01-18T07:28:42Z</time>
      </trkpt>
      <trkpt lat="56.860984525094" lon="14.80156452059">
        <ele>163.8</ele>
        <time>2020-01-18T07:28:48Z</time>
      </trkpt>
      <trkpt lat="56.8609236725" lon="14.801698211895">
        <ele>163.8</ele>
        <time>2020-01-18T07:28:51Z</time>
      </trkpt>
      <trkpt lat="56.860787382806" lon="14.801951596732">
        <ele>163.6</ele>
        <time>2020-01-18T07:28:57Z</time>
      </trkpt>
      <trkpt lat="56.86069568482" lon="14.802248651268">
        <ele>163.6</ele>
        <time>2020-01-18T07:29:03Z</time>
      </trkpt>
      <trkpt lat="56.860665929075" lon="14.802608737692">
        <ele>164</ele>
        <time>2020-01-18T07:29:10Z</time>
      </trkpt>
      <trkpt lat="56.860585714292" lon="14.80292490296">
        <ele>164</ele>
        <time>2020-01-18T07:29:16Z</time>
      </trkpt>
      <trkpt lat="56.86046518257" lon="14.803188346077">
        <ele>164</ele>
        <time>2020-01-18T07:29:22Z</time>
      </trkpt>
      <trkpt lat="56.860357810431" lon="14.803500990947">
        <ele>163.8</ele>
        <time>2020-01-18T07:29:28Z</time>
      </trkpt>
      <trkpt lat="56.86024054765" lon="14.80377901857">
        <ele>163.4</ele>
        <time>2020-01-18T07:29:35Z</time>
      </trkpt>
      <trkpt lat="56.860133846063" lon="14.804060818048">
        <ele>163.4</ele>
        <time>2020-01-18T07:29:41Z</time>
      </trkpt>
      <trkpt lat="56.860093110029" lon="14.804420569196">
        <ele>163.2</ele>
        <time>2020-01-18T07:29:48Z</time>
      </trkpt>
      <trkpt lat="56.860111131114" lon="14.804649814161">
        <ele>163</ele>
        <time>2020-01-18T07:29:53Z</time>
      </trkpt>
      <trkpt lat="56.860118339548" lon="14.804986934179">
        <ele>163</ele>
        <time>2020-01-18T07:29:59Z</time>
      </trkpt>
      <trkpt lat="56.860039214412" lon="14.805356743607">
        <ele>163</ele>
        <time>2020-01-18T07:30:05Z</time>
      </trkpt>
      <trkpt lat="56.859938296336" lon="14.805647260261">
        <ele>163.2</ele>
        <time>2020-01-18T07:30:10Z</time>
      </trkpt>
      <trkpt lat="56.859852800956" lon="14.805992929817">
        <ele>163.4</ele>
        <time>2020-01-18T07:30:16Z</time>
      </trkpt>
      <trkpt lat="56.859776693304" lon="14.806300964642">
        <ele>163</ele>
        <time>2020-01-18T07:30:22Z</time>
      </trkpt>
      <trkpt lat="56.859644343103" lon="14.806552254004">
        <ele>163.2</ele>
        <time>2020-01-18T07:30:29Z</time>
      </trkpt>
      <trkpt lat="56.859493552722" lon="14.806730537017">
        <ele>163.2</ele>
        <time>2020-01-18T07:30:37Z</time>
      </trkpt>
      <trkpt lat="56.859303115954" lon="14.806795245285">
        <ele>163.4</ele>
        <time>2020-01-18T07:30:44Z</time>
      </trkpt>
      <trkpt lat="56.859139836542" lon="14.806948382598">
        <ele>163.2</ele>
        <time>2020-01-18T07:30:49Z</time>
      </trkpt>
      <trkpt lat="56.859048473832" lon="14.807041589326">
        <ele>163.2</ele>
        <time>2020-01-18T07:30:52Z</time>
      </trkpt>
      <trkpt lat="56.859010336187" lon="14.807049887407">
        <ele>163</ele>
        <time>2020-01-18T07:30:54Z</time>
      </trkpt>
      <trkpt lat="56.858949148317" lon="14.807012336495">
        <ele>162.6</ele>
        <time>2020-01-18T07:30:58Z</time>
      </trkpt>
      <trkpt lat="56.858854516666" lon="14.806997835808">
        <ele>162.8</ele>
        <time>2020-01-18T07:31:03Z</time>
      </trkpt>
      <trkpt lat="56.858746390156" lon="14.807021808042">
        <ele>162.8</ele>
        <time>2020-01-18T07:31:07Z</time>
      </trkpt>
      <trkpt lat="56.858545476013" lon="14.807091461631">
        <ele>162.8</ele>
        <time>2020-01-18T07:31:12Z</time>
      </trkpt>
      <trkpt lat="56.858349255734" lon="14.807183997807">
        <ele>162.8</ele>
        <time>2020-01-18T07:31:17Z</time>
      </trkpt>
      <trkpt lat="56.858165356848" lon="14.807220207615">
        <ele>162.6</ele>
        <time>2020-01-18T07:31:23Z</time>
      </trkpt>
      <trkpt lat="56.857973495157" lon="14.807160193211">
        <ele>162.6</ele>
        <time>2020-01-18T07:31:29Z</time>
      </trkpt>
      <trkpt lat="56.857762522734" lon="14.807150973121">
        <ele>162.6</ele>
        <time>2020-01-18T07:31:35Z</time>
      </trkpt>
      <trkpt lat="56.857577198925" lon="14.807120463005">
        <ele>162.4</ele>
        <time>2020-01-18T07:31:41Z</time>
      </trkpt>
      <trkpt lat="56.857402939224" lon="14.80698425713">
        <ele>162.6</ele>
        <time>2020-01-18T07:31:48Z</time>
      </trkpt>
      <trkpt lat="56.857233373387" lon="14.806776888924">
        <ele>162.8</ele>
        <time>2020-01-18T07:31:55Z</time>
      </trkpt>
      <trkpt lat="56.857054503641" lon="14.806596929531">
        <ele>162.8</ele>
        <time>2020-01-18T07:32:01Z</time>
      </trkpt>
      <trkpt lat="56.856904886726" lon="14.806389645144">
        <ele>162.8</ele>
        <time>2020-01-18T07:32:07Z</time>
      </trkpt>
      <trkpt lat="56.856758371114" lon="14.806186384069">
        <ele>163</ele>
        <time>2020-01-18T07:32:13Z</time>
      </trkpt>
      <trkpt lat="56.856578998454" lon="14.80603877881">
        <ele>162.8</ele>
        <time>2020-01-18T07:32:19Z</time>
      </trkpt>
      <trkpt lat="56.856397195043" lon="14.805902405297">
        <ele>162.8</ele>
        <time>2020-01-18T07:32:25Z</time>
      </trkpt>
      <trkpt lat="56.856201896773" lon="14.805779442824">
        <ele>163.2</ele>
        <time>2020-01-18T07:32:32Z</time>
      </trkpt>
      <trkpt lat="56.856006263227" lon="14.805615744317">
        <ele>162.6</ele>
        <time>2020-01-18T07:32:38Z</time>
      </trkpt>
      <trkpt lat="56.855860250529" lon="14.805366382792">
        <ele>163</ele>
        <time>2020-01-18T07:32:45Z</time>
      </trkpt>
      <trkpt lat="56.855806019636" lon="14.804995483717">
        <ele>163</ele>
        <time>2020-01-18T07:32:52Z</time>
      </trkpt>
      <trkpt lat="56.855776599167" lon="14.804837820178">
        <ele>162.8</ele>
        <time>2020-01-18T07:32:55Z</time>
      </trkpt>
      <trkpt lat="56.855785735438" lon="14.804489636052">
        <ele>162.8</ele>
        <time>2020-01-18T07:33:02Z</time>
      </trkpt>
      <trkpt lat="56.855826220015" lon="14.804126280687">
        <ele>163</ele>
        <time>2020-01-18T07:33:09Z</time>
      </trkpt>
      <trkpt lat="56.855918253277" lon="14.803828807056">
        <ele>163.4</ele>
        <time>2020-01-18T07:33:16Z</time>
      </trkpt>
      <trkpt lat="56.856013052566" lon="14.803525801371">
        <ele>163.6</ele>
        <time>2020-01-18T07:33:23Z</time>
      </trkpt>
      <trkpt lat="56.856126962587" lon="14.803222376591">
        <ele>164</ele>
        <time>2020-01-18T07:33:30Z</time>
      </trkpt>
      <trkpt lat="56.856181277299" lon="14.803074436056">
        <ele>164</ele>
        <time>2020-01-18T07:33:33Z</time>
      </trkpt>
      <trkpt lat="56.856236178744" lon="14.802747374318">
        <ele>163.8</ele>
        <time>2020-01-18T07:33:39Z</time>
      </trkpt>
      <trkpt lat="56.856237519848" lon="14.802657604169">
        <ele>163.8</ele>
        <time>2020-01-18T07:33:41Z</time>
      </trkpt>
      <trkpt lat="56.856199549841" lon="14.802312856622">
        <ele>164.4</ele>
        <time>2020-01-18T07:33:47Z</time>
      </trkpt>
      <trkpt lat="56.856164932594" lon="14.80205402355">
        <ele>165.2</ele>
        <time>2020-01-18T07:33:52Z</time>
      </trkpt>
      <trkpt lat="56.856093015892" lon="14.801743138879">
        <ele>165.6</ele>
        <time>2020-01-18T07:33:58Z</time>
      </trkpt>
      <trkpt lat="56.855932670145" lon="14.801569717368">
        <ele>165.4</ele>
        <time>2020-01-18T07:34:06Z</time>
      </trkpt>
      <trkpt lat="56.855734857305" lon="14.801511127887">
        <ele>165.2</ele>
        <time>2020-01-18T07:34:14Z</time>
      </trkpt>
      <trkpt lat="56.855547857116" lon="14.80142873381">
        <ele>164.8</ele>
        <time>2020-01-18T07:34:21Z</time>
      </trkpt>
      <trkpt lat="56.855346859154" lon="14.801340975317">
        <ele>164.6</ele>
        <time>2020-01-18T07:34:27Z</time>
      </trkpt>
      <trkpt lat="56.855286090379" lon="14.801295293962">
        <ele>164.4</ele>
        <time>2020-01-18T07:34:30Z</time>
      </trkpt>
      <trkpt lat="56.855234960789" lon="14.80117895319">
        <ele>164.2</ele>
        <time>2020-01-18T07:34:33Z</time>
      </trkpt>
      <trkpt lat="56.855076542879" lon="14.800959766505">
        <ele>163.4</ele>
        <time>2020-01-18T07:34:39Z</time>
      </trkpt>
      <trkpt lat="56.854966823808" lon="14.800881228102">
        <ele>163.2</ele>
        <time>2020-01-18T07:34:42Z</time>
      </trkpt>
      <trkpt lat="56.854770938805" lon="14.800729515712">
        <ele>162.6</ele>
        <time>2020-01-18T07:34:49Z</time>
      </trkpt>
      <trkpt lat="56.854597182018" lon="14.800548131396">
        <ele>162.8</ele>
        <time>2020-01-18T07:34:55Z</time>
      </trkpt>
      <trkpt lat="56.854419821014" lon="14.800413266625">
        <ele>162.8</ele>
        <time>2020-01-18T07:35:01Z</time>
      </trkpt>
      <trkpt lat="56.854248243521" lon="14.800232133766">
        <ele>163.2</ele>
        <time>2020-01-18T07:35:08Z</time>
      </trkpt>
      <trkpt lat="56.854127041247" lon="14.799988471933">
        <ele>162.8</ele>
        <time>2020-01-18T07:35:15Z</time>
      </trkpt>
      <trkpt lat="56.853978346341" lon="14.799788312161">
        <ele>163</ele>
        <time>2020-01-18T07:35:21Z</time>
      </trkpt>
      <trkpt lat="56.853828058874" lon="14.799600725239">
        <ele>162.8</ele>
        <time>2020-01-18T07:35:27Z</time>
      </trkpt>
      <trkpt lat="56.853640555771" lon="14.799423028959">
        <ele>163.2</ele>
        <time>2020-01-18T07:35:34Z</time>
      </trkpt>
      <trkpt lat="56.853435618316" lon="14.799255055683">
        <ele>163.4</ele>
        <time>2020-01-18T07:35:41Z</time>
      </trkpt>
      <trkpt lat="56.853255994199" lon="14.799068642227">
        <ele>163.4</ele>
        <time>2020-01-18T07:35:47Z</time>
      </trkpt>
      <trkpt lat="56.853208217369" lon="14.799007454357">
        <ele>163.4</ele>
        <time>2020-01-18T07:35:49Z</time>
      </trkpt>
      <trkpt lat="56.853020798085" lon="14.798884575703">
        <ele>163.4</ele>
        <time>2020-01-18T07:35:56Z</time>
      </trkpt>
      <trkpt lat="56.852841509244" lon="14.798706041233">
        <ele>162.8</ele>
        <time>2020-01-18T07:36:03Z</time>
      </trkpt>
      <trkpt lat="56.852663226231" lon="14.79852356727">
        <ele>162.6</ele>
        <time>2020-01-18T07:36:09Z</time>
      </trkpt>
      <trkpt lat="56.852480081716" lon="14.798361628962">
        <ele>162.4</ele>
        <time>2020-01-18T07:36:15Z</time>
      </trkpt>
      <trkpt lat="56.852290231681" lon="14.798244198543">
        <ele>163.2</ele>
        <time>2020-01-18T07:36:21Z</time>
      </trkpt>
      <trkpt lat="56.852263744877" lon="14.798218130834">
        <ele>163</ele>
        <time>2020-01-18T07:36:22Z</time>
      </trkpt>
      <trkpt lat="56.852077331421" lon="14.798095671275">
        <ele>162.8</ele>
        <time>2020-01-18T07:36:30Z</time>
      </trkpt>
      <trkpt lat="56.8518963662" lon="14.797992322448">
        <ele>163</ele>
        <time>2020-01-18T07:36:36Z</time>
      </trkpt>
      <trkpt lat="56.85174716838" lon="14.79790163029">
        <ele>162.2</ele>
        <time>2020-01-18T07:36:41Z</time>
      </trkpt>
      <trkpt lat="56.851555558146" lon="14.797872545097">
        <ele>162.2</ele>
        <time>2020-01-18T07:36:46Z</time>
      </trkpt>
      <trkpt lat="56.851360427514" lon="14.797869108518">
        <ele>162.6</ele>
        <time>2020-01-18T07:36:51Z</time>
      </trkpt>
      <trkpt lat="56.851149203634" lon="14.797857876772">
        <ele>162.4</ele>
        <time>2020-01-18T07:36:58Z</time>
      </trkpt>
      <trkpt lat="56.850955581744" lon="14.797819822946">
        <ele>162.2</ele>
        <time>2020-01-18T07:37:05Z</time>
      </trkpt>
      <trkpt lat="56.850761205483" lon="14.797815967272">
        <ele>162.2</ele>
        <time>2020-01-18T07:37:10Z</time>
      </trkpt>
      <trkpt lat="56.85056196772" lon="14.797820828774">
        <ele>161.8</ele>
        <time>2020-01-18T07:37:17Z</time>
      </trkpt>
      <trkpt lat="56.850368932563" lon="14.797727705865">
        <ele>162</ele>
        <time>2020-01-18T07:37:23Z</time>
      </trkpt>
      <trkpt lat="56.850189392265" lon="14.79767112804">
        <ele>162.2</ele>
        <time>2020-01-18T07:37:27Z</time>
      </trkpt>
      <trkpt lat="56.849991244149" lon="14.797624524676">
        <ele>162.4</ele>
        <time>2020-01-18T07:37:33Z</time>
      </trkpt>
      <trkpt lat="56.849790246187" lon="14.797561241331">
        <ele>163.2</ele>
        <time>2020-01-18T07:37:39Z</time>
      </trkpt>
      <trkpt lat="56.849759987528" lon="14.797531485586">
        <ele>163.4</ele>
        <time>2020-01-18T07:37:40Z</time>
      </trkpt>
      <trkpt lat="56.849577848841" lon="14.797376839531">
        <ele>163.2</ele>
        <time>2020-01-18T07:37:45Z</time>
      </trkpt>
      <trkpt lat="56.849499310438" lon="14.797297462938">
        <ele>162.4</ele>
        <time>2020-01-18T07:37:48Z</time>
      </trkpt>
      <trkpt lat="56.849399565828" lon="14.797188246781">
        <ele>161.2</ele>
        <time>2020-01-18T07:37:53Z</time>
      </trkpt>
      <trkpt lat="56.84920661449" lon="14.797098225175">
        <ele>162.2</ele>
        <time>2020-01-18T07:38:01Z</time>
      </trkpt>
      <trkpt lat="56.849163447705" lon="14.797079701176">
        <ele>162.4</ele>
        <time>2020-01-18T07:38:03Z</time>
      </trkpt>
      <trkpt lat="56.848964461399" lon="14.797027817215">
        <ele>162.6</ele>
        <time>2020-01-18T07:38:09Z</time>
      </trkpt>
      <trkpt lat="56.848765223636" lon="14.79703158907">
        <ele>162.6</ele>
        <time>2020-01-18T07:38:14Z</time>
      </trkpt>
      <trkpt lat="56.848581240931" lon="14.796991607407">
        <ele>163.2</ele>
        <time>2020-01-18T07:38:20Z</time>
      </trkpt>
      <trkpt lat="56.848550563177" lon="14.796962689852">
        <ele>163.6</ele>
        <time>2020-01-18T07:38:21Z</time>
      </trkpt>
      <trkpt lat="56.848357360382" lon="14.796811396557">
        <ele>163.8</ele>
        <time>2020-01-18T07:38:26Z</time>
      </trkpt>
      <trkpt lat="56.848160385732" lon="14.796721794046">
        <ele>163.2</ele>
        <time>2020-01-18T07:38:31Z</time>
      </trkpt>
      <trkpt lat="56.847984701108" lon="14.796619618685">
        <ele>164</ele>
        <time>2020-01-18T07:38:37Z</time>
      </trkpt>
      <trkpt lat="56.847877161331" lon="14.796547031431">
        <ele>164.8</ele>
        <time>2020-01-18T07:38:41Z</time>
      </trkpt>
      <trkpt lat="56.847713127548" lon="14.79635349336">
        <ele>165.2</ele>
        <time>2020-01-18T07:38:47Z</time>
      </trkpt>
      <trkpt lat="56.847566528117" lon="14.796145370783">
        <ele>164.6</ele>
        <time>2020-01-18T07:38:52Z</time>
      </trkpt>
      <trkpt lat="56.847414228994" lon="14.795959795517">
        <ele>164.4</ele>
        <time>2020-01-18T07:38:58Z</time>
      </trkpt>
      <trkpt lat="56.84725363179" lon="14.795814201914">
        <ele>165.4</ele>
        <time>2020-01-18T07:39:04Z</time>
      </trkpt>
      <trkpt lat="56.847072498931" lon="14.795671039062">
        <ele>165.2</ele>
        <time>2020-01-18T07:39:11Z</time>
      </trkpt>
      <trkpt lat="56.846882816534" lon="14.795585124587">
        <ele>164.2</ele>
        <time>2020-01-18T07:39:17Z</time>
      </trkpt>
      <trkpt lat="56.84668533897" lon="14.795550255883">
        <ele>164.4</ele>
        <time>2020-01-18T07:39:23Z</time>
      </trkpt>
      <trkpt lat="56.846469588864" lon="14.795567941692">
        <ele>164.8</ele>
        <time>2020-01-18T07:39:28Z</time>
      </trkpt>
      <trkpt lat="56.846288539824" lon="14.795566349131">
        <ele>165.8</ele>
        <time>2020-01-18T07:39:34Z</time>
      </trkpt>
      <trkpt lat="56.846114699218" lon="14.795456546241">
        <ele>166.8</ele>
        <time>2020-01-18T07:39:41Z</time>
      </trkpt>
      <trkpt lat="56.845918227482" lon="14.795408685592">
        <ele>166</ele>
        <time>2020-01-18T07:39:47Z</time>
      </trkpt>
      <trkpt lat="56.845735334424" lon="14.795425114116">
        <ele>166.2</ele>
        <time>2020-01-18T07:39:53Z</time>
      </trkpt>
      <trkpt lat="56.845553363375" lon="14.795486721081">
        <ele>166.2</ele>
        <time>2020-01-18T07:39:58Z</time>
      </trkpt>
      <trkpt lat="56.845376170009" lon="14.795552099901">
        <ele>166.8</ele>
        <time>2020-01-18T07:40:06Z</time>
      </trkpt>
      <trkpt lat="56.845318753994" lon="14.795566768226">
        <ele>167</ele>
        <time>2020-01-18T07:40:08Z</time>
      </trkpt>
      <trkpt lat="56.845113145987" lon="14.79560666607">
        <ele>167</ele>
        <time>2020-01-18T07:40:13Z</time>
      </trkpt>
      <trkpt lat="56.844994877378" lon="14.795643965525">
        <ele>168</ele>
        <time>2020-01-18T07:40:19Z</time>
      </trkpt>
      <trkpt lat="56.844968055298" lon="14.795661735153">
        <ele>168</ele>
        <time>2020-01-18T07:40:20Z</time>
      </trkpt>
      <trkpt lat="56.844768649897" lon="14.795747733447">
        <ele>168.6</ele>
        <time>2020-01-18T07:40:29Z</time>
      </trkpt>
      <trkpt lat="56.84453957257" lon="14.795657460384">
        <ele>168.8</ele>
        <time>2020-01-18T07:40:38Z</time>
      </trkpt>
      <trkpt lat="56.844356511874" lon="14.795549836788">
        <ele>167.6</ele>
        <time>2020-01-18T07:40:47Z</time>
      </trkpt>
      <trkpt lat="56.844180575793" lon="14.79548261395">
        <ele>168</ele>
        <time>2020-01-18T07:40:54Z</time>
      </trkpt>
      <trkpt lat="56.843996760726" lon="14.795492253135">
        <ele>167.2</ele>
        <time>2020-01-18T07:41:00Z</time>
      </trkpt>
      <trkpt lat="56.843799199343" lon="14.795484541787">
        <ele>167</ele>
        <time>2020-01-18T07:41:07Z</time>
      </trkpt>
      <trkpt lat="56.843782938457" lon="14.795468113263">
        <ele>167</ele>
        <time>2020-01-18T07:41:08Z</time>
      </trkpt>
      <trkpt lat="56.843559393184" lon="14.795366608454">
        <ele>167</ele>
        <time>2020-01-18T07:41:13Z</time>
      </trkpt>
      <trkpt lat="56.843305840709" lon="14.795351437215">
        <ele>166.6</ele>
        <time>2020-01-18T07:41:18Z</time>
      </trkpt>
      <trkpt lat="56.843098137227" lon="14.795362166047">
        <ele>166.8</ele>
        <time>2020-01-18T07:41:21Z</time>
      </trkpt>
      <trkpt lat="56.842880375465" lon="14.795254542451">
        <ele>167</ele>
        <time>2020-01-18T07:41:25Z</time>
      </trkpt>
      <trkpt lat="56.842833772101" lon="14.795153289099">
        <ele>166.6</ele>
        <time>2020-01-18T07:41:27Z</time>
      </trkpt>
      <trkpt lat="56.842761436304" lon="14.794832010872">
        <ele>166.6</ele>
        <time>2020-01-18T07:41:33Z</time>
      </trkpt>
      <trkpt lat="56.842647945378" lon="14.794573513076">
        <ele>166.2</ele>
        <time>2020-01-18T07:41:38Z</time>
      </trkpt>
      <trkpt lat="56.842583740024" lon="14.794485251669">
        <ele>165.8</ele>
        <time>2020-01-18T07:41:40Z</time>
      </trkpt>
      <trkpt lat="56.842430435073" lon="14.794315099099">
        <ele>165.6</ele>
        <time>2020-01-18T07:41:45Z</time>
      </trkpt>
      <trkpt lat="56.842300012709" lon="14.79410462959">
        <ele>164.8</ele>
        <time>2020-01-18T07:41:50Z</time>
      </trkpt>
      <trkpt lat="56.84221275713" lon="14.793820147904">
        <ele>164.6</ele>
        <time>2020-01-18T07:41:56Z</time>
      </trkpt>
      <trkpt lat="56.842207644171" lon="14.793494594908">
        <ele>164</ele>
        <time>2020-01-18T07:42:02Z</time>
      </trkpt>
      <trkpt lat="56.842245614178" lon="14.793235510379">
        <ele>163.8</ele>
        <time>2020-01-18T07:42:07Z</time>
      </trkpt>
      <trkpt lat="56.842245278902" lon="14.793190583395">
        <ele>163.6</ele>
        <time>2020-01-18T07:42:08Z</time>
      </trkpt>
      <trkpt lat="56.842148048862" lon="14.792894199411">
        <ele>163.2</ele>
        <time>2020-01-18T07:42:15Z</time>
      </trkpt>
      <trkpt lat="56.841990385323" lon="14.792742067926">
        <ele>163.2</ele>
        <time>2020-01-18T07:42:22Z</time>
      </trkpt>
      <trkpt lat="56.841794667958" lon="14.79259588759">
        <ele>163.2</ele>
        <time>2020-01-18T07:42:30Z</time>
      </trkpt>
      <trkpt lat="56.841577157653" lon="14.7925279942">
        <ele>163</ele>
        <time>2020-01-18T07:42:35Z</time>
      </trkpt>
      <trkpt lat="56.841391917663" lon="14.79246177719">
        <ele>163.2</ele>
        <time>2020-01-18T07:42:40Z</time>
      </trkpt>
      <trkpt lat="56.841195026832" lon="14.792390195764">
        <ele>163.4</ele>
        <time>2020-01-18T07:42:45Z</time>
      </trkpt>
      <trkpt lat="56.84100073439" lon="14.79225390607">
        <ele>163.4</ele>
        <time>2020-01-18T07:42:52Z</time>
      </trkpt>
      <trkpt lat="56.840835024227" lon="14.792109485933">
        <ele>163.2</ele>
        <time>2020-01-18T07:42:59Z</time>
      </trkpt>
      <trkpt lat="56.840642659622" lon="14.792086184251">
        <ele>163</ele>
        <time>2020-01-18T07:43:05Z</time>
      </trkpt>
      <trkpt lat="56.840496479286" lon="14.791890718343">
        <ele>163.4</ele>
        <time>2020-01-18T07:43:13Z</time>
      </trkpt>
      <trkpt lat="56.840253571824" lon="14.791773958476">
        <ele>163.4</ele>
        <time>2020-01-18T07:43:18Z</time>
      </trkpt>
      <trkpt lat="56.840052070948" lon="14.79170908257">
        <ele>163.6</ele>
        <time>2020-01-18T07:43:22Z</time>
      </trkpt>
      <trkpt lat="56.839920056023" lon="14.791454859543">
        <ele>165</ele>
        <time>2020-01-18T07:43:30Z</time>
      </trkpt>
      <trkpt lat="56.839856940316" lon="14.791167779468">
        <ele>166.2</ele>
        <time>2020-01-18T07:43:35Z</time>
      </trkpt>
      <trkpt lat="56.839816120463" lon="14.790805849026">
        <ele>166.4</ele>
        <time>2020-01-18T07:43:41Z</time>
      </trkpt>
      <trkpt lat="56.839765158511" lon="14.790437715978">
        <ele>166.8</ele>
        <time>2020-01-18T07:43:47Z</time>
      </trkpt>
      <trkpt lat="56.839712771636" lon="14.790100428322">
        <ele>166.2</ele>
        <time>2020-01-18T07:43:52Z</time>
      </trkpt>
      <trkpt lat="56.839653679241" lon="14.789806642727">
        <ele>165</ele>
        <time>2020-01-18T07:43:57Z</time>
      </trkpt>
      <trkpt lat="56.839558628495" lon="14.789490645097">
        <ele>164.4</ele>
        <time>2020-01-18T07:44:03Z</time>
      </trkpt>
      <trkpt lat="56.839406413191" lon="14.789376148343">
        <ele>164</ele>
        <time>2020-01-18T07:44:11Z</time>
      </trkpt>
      <trkpt lat="56.8392648429" lon="14.789253604965">
        <ele>163</ele>
        <time>2020-01-18T07:44:16Z</time>
      </trkpt>
      <trkpt lat="56.839243804331" lon="14.789226866704">
        <ele>162.8</ele>
        <time>2020-01-18T07:44:17Z</time>
      </trkpt>
      <trkpt lat="56.839117908193" lon="14.789126451542">
        <ele>162</ele>
        <time>2020-01-18T07:44:21Z</time>
      </trkpt>
      <trkpt lat="56.838929650719" lon="14.789028886226">
        <ele>162.6</ele>
        <time>2020-01-18T07:44:29Z</time>
      </trkpt>
      <trkpt lat="56.838739046313" lon="14.788978091912">
        <ele>162.4</ele>
        <time>2020-01-18T07:44:36Z</time>
      </trkpt>
      <trkpt lat="56.838616670573" lon="14.788925202123">
        <ele>162.4</ele>
        <time>2020-01-18T07:44:40Z</time>
      </trkpt>
      <trkpt lat="56.838519943447" lon="14.788768292955">
        <ele>162.4</ele>
        <time>2020-01-18T07:44:44Z</time>
      </trkpt>
      <trkpt lat="56.83849622267" lon="14.788685144507">
        <ele>162.6</ele>
        <time>2020-01-18T07:44:46Z</time>
      </trkpt>
      <trkpt lat="56.838481219069" lon="14.788526223683">
        <ele>163</ele>
        <time>2020-01-18T07:44:49Z</time>
      </trkpt>
      <trkpt lat="56.838517261239" lon="14.788139985731">
        <ele>162.6</ele>
        <time>2020-01-18T07:44:56Z</time>
      </trkpt>
      <trkpt lat="56.838579538756" lon="14.787798758582">
        <ele>162.6</ele>
        <time>2020-01-18T07:45:02Z</time>
      </trkpt>
      <trkpt lat="56.838620190971" lon="14.787462644392">
        <ele>162.6</ele>
        <time>2020-01-18T07:45:08Z</time>
      </trkpt>
      <trkpt lat="56.838677690805" lon="14.78713759431">
        <ele>162</ele>
        <time>2020-01-18T07:45:14Z</time>
      </trkpt>
      <trkpt lat="56.83873510682" lon="14.786801061025">
        <ele>163</ele>
        <time>2020-01-18T07:45:20Z</time>
      </trkpt>
      <trkpt lat="56.838816914164" lon="14.786473328735">
        <ele>163.4</ele>
        <time>2020-01-18T07:45:26Z</time>
      </trkpt>
      <trkpt lat="56.838912300186" lon="14.786170909783">
        <ele>162.6</ele>
        <time>2020-01-18T07:45:31Z</time>
      </trkpt>
      <trkpt lat="56.838944151406" lon="14.78593060071">
        <ele>162</ele>
        <time>2020-01-18T07:45:35Z</time>
      </trkpt>
      <trkpt lat="56.839013804995" lon="14.785631702156">
        <ele>161.8</ele>
        <time>2020-01-18T07:45:41Z</time>
      </trkpt>
      <trkpt lat="56.839041297627" lon="14.785279746175">
        <ele>162.4</ele>
        <time>2020-01-18T07:45:48Z</time>
      </trkpt>
      <trkpt lat="56.839019420868" lon="14.785197016822">
        <ele>163.2</ele>
        <time>2020-01-18T07:45:50Z</time>
      </trkpt>
      <trkpt lat="56.838986982915" lon="14.785104480646">
        <ele>164.4</ele>
        <time>2020-01-18T07:45:52Z</time>
      </trkpt>
      <trkpt lat="56.838942391207" lon="14.784888143807">
        <ele>165.6</ele>
        <time>2020-01-18T07:45:56Z</time>
      </trkpt>
      <trkpt lat="56.838798138708" lon="14.784604751768">
        <ele>165.4</ele>
        <time>2020-01-18T07:46:03Z</time>
      </trkpt>
      <trkpt lat="56.838729155671" lon="14.784327813792">
        <ele>164.4</ele>
        <time>2020-01-18T07:46:08Z</time>
      </trkpt>
      <trkpt lat="56.838720773771" lon="14.783960770391">
        <ele>164.4</ele>
        <time>2020-01-18T07:46:14Z</time>
      </trkpt>
      <trkpt lat="56.83868313904" lon="14.783831605312">
        <ele>163.6</ele>
        <time>2020-01-18T07:46:17Z</time>
      </trkpt>
      <trkpt lat="56.838654053847" lon="14.783807046345">
        <ele>163.4</ele>
        <time>2020-01-18T07:46:19Z</time>
      </trkpt>
      <trkpt lat="56.83847107697" lon="14.783783577025">
        <ele>162.8</ele>
        <time>2020-01-18T07:46:27Z</time>
      </trkpt>
      <trkpt lat="56.838268989361" lon="14.783772010003">
        <ele>163</ele>
        <time>2020-01-18T07:46:32Z</time>
      </trkpt>
      <trkpt lat="56.838086431579" lon="14.783797993893">
        <ele>163.2</ele>
        <time>2020-01-18T07:46:38Z</time>
      </trkpt>
      <trkpt lat="56.837883924875" lon="14.783851218958">
        <ele>163.6</ele>
        <time>2020-01-18T07:46:44Z</time>
      </trkpt>
      <trkpt lat="56.837683765103" lon="14.783889272784">
        <ele>162.8</ele>
        <time>2020-01-18T07:46:50Z</time>
      </trkpt>
      <trkpt lat="56.837504224805" lon="14.783974349069">
        <ele>163</ele>
        <time>2020-01-18T07:46:55Z</time>
      </trkpt>
      <trkpt lat="56.837291324545" lon="14.783952137034">
        <ele>162.6</ele>
        <time>2020-01-18T07:47:02Z</time>
      </trkpt>
      <trkpt lat="56.837113795903" lon="14.783827582">
        <ele>163.6</ele>
        <time>2020-01-18T07:47:07Z</time>
      </trkpt>
      <trkpt lat="56.837040119002" lon="14.783728005028">
        <ele>163.8</ele>
        <time>2020-01-18T07:47:11Z</time>
      </trkpt>
      <trkpt lat="56.836861919808" lon="14.783589703678">
        <ele>163</ele>
        <time>2020-01-18T07:47:20Z</time>
      </trkpt>
      <trkpt lat="56.836814981168" lon="14.783604791098">
        <ele>162.6</ele>
        <time>2020-01-18T07:47:22Z</time>
      </trkpt>
      <trkpt lat="56.836617671242" lon="14.783661955656">
        <ele>162.6</ele>
        <time>2020-01-18T07:47:30Z</time>
      </trkpt>
      <trkpt lat="56.836489092896" lon="14.783671930117">
        <ele>162.2</ele>
        <time>2020-01-18T07:47:34Z</time>
      </trkpt>
      <trkpt lat="56.836448608319" lon="14.783685760252">
        <ele>162.2</ele>
        <time>2020-01-18T07:47:35Z</time>
      </trkpt>
      <trkpt lat="56.836261272854" lon="14.783766897044">
        <ele>162</ele>
        <time>2020-01-18T07:47:38Z</time>
      </trkpt>
      <trkpt lat="56.836076871054" lon="14.783907377688">
        <ele>162</ele>
        <time>2020-01-18T07:47:42Z</time>
      </trkpt>
      <trkpt lat="56.835851817039" lon="14.784038386785">
        <ele>161.6</ele>
        <time>2020-01-18T07:47:46Z</time>
      </trkpt>
      <trkpt lat="56.83570337359" lon="14.784271571243">
        <ele>162</ele>
        <time>2020-01-18T07:47:51Z</time>
      </trkpt>
      <trkpt lat="56.835590301759" lon="14.784588742339">
        <ele>161.6</ele>
        <time>2020-01-18T07:47:57Z</time>
      </trkpt>
      <trkpt lat="56.835500866886" lon="14.784918402466">
        <ele>162</ele>
        <time>2020-01-18T07:48:03Z</time>
      </trkpt>
      <trkpt lat="56.835345215003" lon="14.785116215306">
        <ele>161.6</ele>
        <time>2020-01-18T07:48:10Z</time>
      </trkpt>
      <trkpt lat="56.835143797946" lon="14.785064247526">
        <ele>162</ele>
        <time>2020-01-18T07:48:16Z</time>
      </trkpt>
      <trkpt lat="56.834978003964" lon="14.784880683916">
        <ele>162.2</ele>
        <time>2020-01-18T07:48:23Z</time>
      </trkpt>
      <trkpt lat="56.834816065656" lon="14.784629478373">
        <ele>162</ele>
        <time>2020-01-18T07:48:30Z</time>
      </trkpt>
      <trkpt lat="56.834638620833" lon="14.784569212512">
        <ele>162.2</ele>
        <time>2020-01-18T07:48:35Z</time>
      </trkpt>
      <trkpt lat="56.834443657839" lon="14.784687732578">
        <ele>161.4</ele>
        <time>2020-01-18T07:48:41Z</time>
      </trkpt>
      <trkpt lat="56.834273840545" lon="14.784835505475">
        <ele>162.4</ele>
        <time>2020-01-18T07:48:48Z</time>
      </trkpt>
      <trkpt lat="56.834145010742" lon="14.784773144139">
        <ele>163.4</ele>
        <time>2020-01-18T07:48:53Z</time>
      </trkpt>
      <trkpt lat="56.834084493424" lon="14.784677841936">
        <ele>164.6</ele>
        <time>2020-01-18T07:48:56Z</time>
      </trkpt>
      <trkpt lat="56.833968739385" lon="14.784413895905">
        <ele>165.4</ele>
        <time>2020-01-18T07:49:02Z</time>
      </trkpt>
      <trkpt lat="56.833948874282" lon="14.784366035256">
        <ele>165.6</ele>
        <time>2020-01-18T07:49:03Z</time>
      </trkpt>
      <trkpt lat="56.833840328677" lon="14.784055485861">
        <ele>166.4</ele>
        <time>2020-01-18T07:49:10Z</time>
      </trkpt>
      <trkpt lat="56.833819793022" lon="14.784003937176">
        <ele>166.8</ele>
        <time>2020-01-18T07:49:11Z</time>
      </trkpt>
      <trkpt lat="56.833765059215" lon="14.783759269515">
        <ele>167.8</ele>
        <time>2020-01-18T07:49:16Z</time>
      </trkpt>
      <trkpt lat="56.833744272103" lon="14.783452156699">
        <ele>168.8</ele>
        <time>2020-01-18T07:49:22Z</time>
      </trkpt>
      <trkpt lat="56.833788193259" lon="14.783089220429">
        <ele>168.4</ele>
        <time>2020-01-18T07:49:29Z</time>
      </trkpt>
      <trkpt lat="56.833859942323" lon="14.78277313898">
        <ele>168.4</ele>
        <time>2020-01-18T07:49:35Z</time>
      </trkpt>
      <trkpt lat="56.833901348909" lon="14.782437443885">
        <ele>168.8</ele>
        <time>2020-01-18T07:49:41Z</time>
      </trkpt>
      <trkpt lat="56.833942839314" lon="14.782093618347">
        <ele>168.2</ele>
        <time>2020-01-18T07:49:47Z</time>
      </trkpt>
      <trkpt lat="56.833982401882" lon="14.781843083356">
        <ele>167.6</ele>
        <time>2020-01-18T07:49:51Z</time>
      </trkpt>
      <trkpt lat="56.834025652486" lon="14.781673266062">
        <ele>166.6</ele>
        <time>2020-01-18T07:49:54Z</time>
      </trkpt>
      <trkpt lat="56.834072507307" lon="14.781419545949">
        <ele>165.4</ele>
        <time>2020-01-18T07:49:58Z</time>
      </trkpt>
      <trkpt lat="56.834133024625" lon="14.781113019866">
        <ele>164.2</ele>
        <time>2020-01-18T07:50:03Z</time>
      </trkpt>
      <trkpt lat="56.834202091481" lon="14.780797106055">
        <ele>163.6</ele>
        <time>2020-01-18T07:50:09Z</time>
      </trkpt>
      <trkpt lat="56.834267135025" lon="14.780482700986">
        <ele>164</ele>
        <time>2020-01-18T07:50:15Z</time>
      </trkpt>
      <trkpt lat="56.834326897972" lon="14.78012445858">
        <ele>164.4</ele>
        <time>2020-01-18T07:50:21Z</time>
      </trkpt>
      <trkpt lat="56.834366292902" lon="14.779823045456">
        <ele>165.2</ele>
        <time>2020-01-18T07:50:26Z</time>
      </trkpt>
      <trkpt lat="56.834382972883" lon="14.779453822761">
        <ele>166</ele>
        <time>2020-01-18T07:50:32Z</time>
      </trkpt>
      <trkpt lat="56.8343865771" lon="14.779324573863">
        <ele>166.2</ele>
        <time>2020-01-18T07:50:34Z</time>
      </trkpt>
      <trkpt lat="56.834398227941" lon="14.778949483838">
        <ele>166</ele>
        <time>2020-01-18T07:50:40Z</time>
      </trkpt>
      <trkpt lat="56.834441813821" lon="14.77859560002">
        <ele>165.6</ele>
        <time>2020-01-18T07:50:46Z</time>
      </trkpt>
      <trkpt lat="56.834489003918" lon="14.778500130179">
        <ele>165.2</ele>
        <time>2020-01-18T07:50:48Z</time>
      </trkpt>
      <trkpt lat="56.834651948054" lon="14.778313632904">
        <ele>165.2</ele>
        <time>2020-01-18T07:50:54Z</time>
      </trkpt>
      <trkpt lat="56.834829560515" lon="14.778124201964">
        <ele>165.8</ele>
        <time>2020-01-18T07:51:01Z</time>
      </trkpt>
      <trkpt lat="56.834976411403" lon="14.777876768276">
        <ele>165</ele>
        <time>2020-01-18T07:51:07Z</time>
      </trkpt>
      <trkpt lat="56.835054530711" lon="14.777728408646">
        <ele>164.2</ele>
        <time>2020-01-18T07:51:10Z</time>
      </trkpt>
      <trkpt lat="56.835180929763" lon="14.777532942738">
        <ele>163</ele>
        <time>2020-01-18T07:51:15Z</time>
      </trkpt>
      <trkpt lat="56.835326774823" lon="14.777370920611">
        <ele>164</ele>
        <time>2020-01-18T07:51:20Z</time>
      </trkpt>
      <trkpt lat="56.835512517727" lon="14.777298417176">
        <ele>164.2</ele>
        <time>2020-01-18T07:51:26Z</time>
      </trkpt>
      <trkpt lat="56.835692560939" lon="14.77728299448">
        <ele>163.6</ele>
        <time>2020-01-18T07:51:32Z</time>
      </trkpt>
      <trkpt lat="56.835895654376" lon="14.777397994148">
        <ele>163.6</ele>
        <time>2020-01-18T07:51:38Z</time>
      </trkpt>
      <trkpt lat="56.836079972357" lon="14.777568649632">
        <ele>163.4</ele>
        <time>2020-01-18T07:51:44Z</time>
      </trkpt>
      <trkpt lat="56.836155660914" lon="14.777586335441">
        <ele>163.2</ele>
        <time>2020-01-18T07:51:47Z</time>
      </trkpt>
      <trkpt lat="56.836221542648" lon="14.777535624946">
        <ele>162.8</ele>
        <time>2020-01-18T07:51:49Z</time>
      </trkpt>
      <trkpt lat="56.836393036322" lon="14.777343260341">
        <ele>162.4</ele>
        <time>2020-01-18T07:51:55Z</time>
      </trkpt>
      <trkpt lat="56.836562183064" lon="14.777131868823">
        <ele>163</ele>
        <time>2020-01-18T07:52:01Z</time>
      </trkpt>
      <trkpt lat="56.836757565153" lon="14.777006307961">
        <ele>162</ele>
        <time>2020-01-18T07:52:07Z</time>
      </trkpt>
      <trkpt lat="56.836828559846" lon="14.776919303839">
        <ele>161.8</ele>
        <time>2020-01-18T07:52:10Z</time>
      </trkpt>
      <trkpt lat="56.83702519922" lon="14.7768119317">
        <ele>161</ele>
        <time>2020-01-18T07:52:16Z</time>
      </trkpt>
      <trkpt lat="56.837192669582" lon="14.776603641485">
        <ele>161.2</ele>
        <time>2020-01-18T07:52:22Z</time>
      </trkpt>
      <trkpt lat="56.837356787184" lon="14.776369283561">
        <ele>160.8</ele>
        <time>2020-01-18T07:52:28Z</time>
      </trkpt>
      <trkpt lat="56.837520988605" lon="14.776152443808">
        <ele>161.2</ele>
        <time>2020-01-18T07:52:34Z</time>
      </trkpt>
      <trkpt lat="56.837584188131" lon="14.775871650158">
        <ele>161.2</ele>
        <time>2020-01-18T07:52:40Z</time>
      </trkpt>
      <trkpt lat="56.837574716584" lon="14.775821442577">
        <ele>160.8</ele>
        <time>2020-01-18T07:52:41Z</time>
      </trkpt>
      <trkpt lat="56.837510678868" lon="14.775451297873">
        <ele>161</ele>
        <time>2020-01-18T07:52:47Z</time>
      </trkpt>
      <trkpt lat="56.837485533168" lon="14.77509531858">
        <ele>161.2</ele>
        <time>2020-01-18T07:52:53Z</time>
      </trkpt>
      <trkpt lat="56.837540183156" lon="14.774774124172">
        <ele>161.2</ele>
        <time>2020-01-18T07:52:58Z</time>
      </trkpt>
      <trkpt lat="56.837691727908" lon="14.774506993019">
        <ele>161.4</ele>
        <time>2020-01-18T07:53:05Z</time>
      </trkpt>
      <trkpt lat="56.837765823904" lon="14.774152941563">
        <ele>160.8</ele>
        <time>2020-01-18T07:53:11Z</time>
      </trkpt>
      <trkpt lat="56.83773514615" lon="14.773794363881">
        <ele>161.4</ele>
        <time>2020-01-18T07:53:16Z</time>
      </trkpt>
      <trkpt lat="56.83767647285" lon="14.773483060115">
        <ele>161.2</ele>
        <time>2020-01-18T07:53:21Z</time>
      </trkpt>
      <trkpt lat="56.837607070718" lon="14.773121632587">
        <ele>161.6</ele>
        <time>2020-01-18T07:53:27Z</time>
      </trkpt>
      <trkpt lat="56.837572202014" lon="14.77294955218">
        <ele>161.8</ele>
        <time>2020-01-18T07:53:30Z</time>
      </trkpt>
      <trkpt lat="56.837475977802" lon="14.772656101861">
        <ele>162</ele>
        <time>2020-01-18T07:53:36Z</time>
      </trkpt>
      <trkpt lat="56.837415879579" lon="14.772561973124">
        <ele>161.8</ele>
        <time>2020-01-18T07:53:38Z</time>
      </trkpt>
      <trkpt lat="56.837455525966" lon="14.772242371277">
        <ele>162.4</ele>
        <time>2020-01-18T07:53:44Z</time>
      </trkpt>
      <trkpt lat="56.837475810164" lon="14.772052018328">
        <ele>162.4</ele>
        <time>2020-01-18T07:53:47Z</time>
      </trkpt>
      <trkpt lat="56.837447227885" lon="14.771704672392">
        <ele>162.2</ele>
        <time>2020-01-18T07:53:53Z</time>
      </trkpt>
      <trkpt lat="56.837371623147" lon="14.771363948157">
        <ele>161.4</ele>
        <time>2020-01-18T07:53:59Z</time>
      </trkpt>
      <trkpt lat="56.837298616798" lon="14.77103931717">
        <ele>161.6</ele>
        <time>2020-01-18T07:54:04Z</time>
      </trkpt>
      <trkpt lat="56.837282355912" lon="14.77069146832">
        <ele>161.6</ele>
        <time>2020-01-18T07:54:10Z</time>
      </trkpt>
      <trkpt lat="56.837329965104" lon="14.770313360811">
        <ele>162.2</ele>
        <time>2020-01-18T07:54:16Z</time>
      </trkpt>
      <trkpt lat="56.837435828501" lon="14.770041954889">
        <ele>162.2</ele>
        <time>2020-01-18T07:54:21Z</time>
      </trkpt>
      <trkpt lat="56.837587792348" lon="14.769804830938">
        <ele>162.2</ele>
        <time>2020-01-18T07:54:27Z</time>
      </trkpt>
      <trkpt lat="56.837730619924" lon="14.769593858515">
        <ele>162.8</ele>
        <time>2020-01-18T07:54:33Z</time>
      </trkpt>
      <trkpt lat="56.837777307107" lon="14.769503082538">
        <ele>162.8</ele>
        <time>2020-01-18T07:54:36Z</time>
      </trkpt>
      <trkpt lat="56.837943604003" lon="14.769269478985">
        <ele>164</ele>
        <time>2020-01-18T07:54:43Z</time>
      </trkpt>
      <trkpt lat="56.838107973062" lon="14.76904693954">
        <ele>164.2</ele>
        <time>2020-01-18T07:54:50Z</time>
      </trkpt>
      <trkpt lat="56.838223643282" lon="14.768889276001">
        <ele>165.2</ele>
        <time>2020-01-18T07:54:55Z</time>
      </trkpt>
      <trkpt lat="56.8383512158" lon="14.768727672969">
        <ele>166.2</ele>
        <time>2020-01-18T07:55:00Z</time>
      </trkpt>
      <trkpt lat="56.838513740841" lon="14.768564896471">
        <ele>166.4</ele>
        <time>2020-01-18T07:55:07Z</time>
      </trkpt>
      <trkpt lat="56.838675427692" lon="14.768393486616">
        <ele>167.2</ele>
        <time>2020-01-18T07:55:13Z</time>
      </trkpt>
      <trkpt lat="56.838837785095" lon="14.768183687659">
        <ele>167.6</ele>
        <time>2020-01-18T07:55:19Z</time>
      </trkpt>
      <trkpt lat="56.838949851098" lon="14.768101042125">
        <ele>168.2</ele>
        <time>2020-01-18T07:55:23Z</time>
      </trkpt>
      <trkpt lat="56.839110029207" lon="14.768000124049">
        <ele>169.4</ele>
        <time>2020-01-18T07:55:28Z</time>
      </trkpt>
      <trkpt lat="56.839188399972" lon="14.767925022225">
        <ele>170.6</ele>
        <time>2020-01-18T07:55:31Z</time>
      </trkpt>
      <trkpt lat="56.839287725487" lon="14.767856961197">
        <ele>171.8</ele>
        <time>2020-01-18T07:55:35Z</time>
      </trkpt>
      <trkpt lat="56.839382357138" lon="14.767797784983">
        <ele>173.2</ele>
        <time>2020-01-18T07:55:39Z</time>
      </trkpt>
      <trkpt lat="56.839460560265" lon="14.767751516895">
        <ele>174.6</ele>
        <time>2020-01-18T07:55:42Z</time>
      </trkpt>
      <trkpt lat="56.839601711461" lon="14.767645653498">
        <ele>175.6</ele>
        <time>2020-01-18T07:55:47Z</time>
      </trkpt>
      <trkpt lat="56.839795500989" lon="14.76754574125">
        <ele>176.2</ele>
        <time>2020-01-18T07:55:53Z</time>
      </trkpt>
      <trkpt lat="56.83984738495" lon="14.767477344946">
        <ele>176.8</ele>
        <time>2020-01-18T07:55:55Z</time>
      </trkpt>
      <trkpt lat="56.840031451474" lon="14.767388664444">
        <ele>177</ele>
        <time>2020-01-18T07:56:01Z</time>
      </trkpt>
      <trkpt lat="56.840204202433" lon="14.767268719455">
        <ele>177.6</ele>
        <time>2020-01-18T07:56:07Z</time>
      </trkpt>
      <trkpt lat="56.840377540125" lon="14.767113905762">
        <ele>177.6</ele>
        <time>2020-01-18T07:56:14Z</time>
      </trkpt>
      <trkpt lat="56.840426322783" lon="14.767083730922">
        <ele>177.8</ele>
        <time>2020-01-18T07:56:16Z</time>
      </trkpt>
      <trkpt lat="56.840578118992" lon="14.766997145895">
        <ele>179</ele>
        <time>2020-01-18T07:56:21Z</time>
      </trkpt>
      <trkpt lat="56.840738883834" lon="14.766807044403">
        <ele>180.2</ele>
        <time>2020-01-18T07:56:27Z</time>
      </trkpt>
      <trkpt lat="56.840848351448" lon="14.766461374847">
        <ele>180.2</ele>
        <time>2020-01-18T07:56:33Z</time>
      </trkpt>
      <trkpt lat="56.840960082175" lon="14.766156106049">
        <ele>178.8</ele>
        <time>2020-01-18T07:56:38Z</time>
      </trkpt>
      <trkpt lat="56.841053456541" lon="14.765993078094">
        <ele>177.6</ele>
        <time>2020-01-18T07:56:41Z</time>
      </trkpt>
      <trkpt lat="56.841115314963" lon="14.765897943529">
        <ele>176.6</ele>
        <time>2020-01-18T07:56:43Z</time>
      </trkpt>
      <trkpt lat="56.841172982435" lon="14.765817225832">
        <ele>175</ele>
        <time>2020-01-18T07:56:45Z</time>
      </trkpt>
      <trkpt lat="56.841243222757" lon="14.765739525619">
        <ele>173.8</ele>
        <time>2020-01-18T07:56:47Z</time>
      </trkpt>
      <trkpt lat="56.841419577933" lon="14.76562628615">
        <ele>173</ele>
        <time>2020-01-18T07:56:52Z</time>
      </trkpt>
      <trkpt lat="56.841486968409" lon="14.765606253409">
        <ele>172.4</ele>
        <time>2020-01-18T07:56:54Z</time>
      </trkpt>
      <trkpt lat="56.84167631553" lon="14.765502401668">
        <ele>172.2</ele>
        <time>2020-01-18T07:57:00Z</time>
      </trkpt>
      <trkpt lat="56.841843282978" lon="14.765342475016">
        <ele>173.4</ele>
        <time>2020-01-18T07:57:07Z</time>
      </trkpt>
      <trkpt lat="56.842019721973" lon="14.765167293306">
        <ele>173.4</ele>
        <time>2020-01-18T07:57:13Z</time>
      </trkpt>
      <trkpt lat="56.842196077149" lon="14.764966882077">
        <ele>173.2</ele>
        <time>2020-01-18T07:57:19Z</time>
      </trkpt>
      <trkpt lat="56.842351393756" lon="14.764757502215">
        <ele>172.4</ele>
        <time>2020-01-18T07:57:24Z</time>
      </trkpt>
      <trkpt lat="56.842381065682" lon="14.764723723158">
        <ele>172.2</ele>
        <time>2020-01-18T07:57:25Z</time>
      </trkpt>
      <trkpt lat="56.842509308752" lon="14.764492634175">
        <ele>171.2</ele>
        <time>2020-01-18T07:57:30Z</time>
      </trkpt>
      <trkpt lat="56.842544345094" lon="14.7643648102">
        <ele>170.8</ele>
        <time>2020-01-18T07:57:32Z</time>
      </trkpt>
      <trkpt lat="56.842604024222" lon="14.76420974505">
        <ele>169.6</ele>
        <time>2020-01-18T07:57:35Z</time>
      </trkpt>
      <trkpt lat="56.842650879043" lon="14.764112263553">
        <ele>168.4</ele>
        <time>2020-01-18T07:57:37Z</time>
      </trkpt>
      <trkpt lat="56.842700164615" lon="14.764008327993">
        <ele>167.4</ele>
        <time>2020-01-18T07:57:39Z</time>
      </trkpt>
      <trkpt lat="56.842752970585" lon="14.763901710225">
        <ele>166.2</ele>
        <time>2020-01-18T07:57:41Z</time>
      </trkpt>
      <trkpt lat="56.842802339976" lon="14.763775478811">
        <ele>165</ele>
        <time>2020-01-18T07:57:43Z</time>
      </trkpt>
      <trkpt lat="56.842960925524" lon="14.763541120887">
        <ele>164.8</ele>
        <time>2020-01-18T07:57:49Z</time>
      </trkpt>
      <trkpt lat="56.843135520501" lon="14.763622592955">
        <ele>165.6</ele>
        <time>2020-01-18T07:57:54Z</time>
      </trkpt>
      <trkpt lat="56.84328899309" lon="14.763669196319">
        <ele>166.2</ele>
        <time>2020-01-18T07:57:58Z</time>
      </trkpt>
      <trkpt lat="56.843478507849" lon="14.763691240716">
        <ele>166.4</ele>
        <time>2020-01-18T07:58:03Z</time>
      </trkpt>
      <trkpt lat="56.843687300978" lon="14.76370683105">
        <ele>166.4</ele>
        <time>2020-01-18T07:58:09Z</time>
      </trkpt>
      <trkpt lat="56.843877067194" lon="14.763691659811">
        <ele>166.4</ele>
        <time>2020-01-18T07:58:15Z</time>
      </trkpt>
      <trkpt lat="56.844068928885" lon="14.763646816646">
        <ele>166</ele>
        <time>2020-01-18T07:58:21Z</time>
      </trkpt>
      <trkpt lat="56.84427302815" lon="14.763568948795">
        <ele>165.6</ele>
        <time>2020-01-18T07:58:27Z</time>
      </trkpt>
      <trkpt lat="56.844464722203" lon="14.763424444839">
        <ele>165.6</ele>
        <time>2020-01-18T07:58:33Z</time>
      </trkpt>
      <trkpt lat="56.844655410428" lon="14.763353031051">
        <ele>165.8</ele>
        <time>2020-01-18T07:58:39Z</time>
      </trkpt>
      <trkpt lat="56.844816259089" lon="14.763576827781">
        <ele>166.8</ele>
        <time>2020-01-18T07:58:45Z</time>
      </trkpt>
      <trkpt lat="56.8448304245" lon="14.763695515485">
        <ele>167.2</ele>
        <time>2020-01-18T07:58:47Z</time>
      </trkpt>
      <trkpt lat="56.844792454493" lon="14.764020481748">
        <ele>167.8</ele>
        <time>2020-01-18T07:58:52Z</time>
      </trkpt>
      <trkpt lat="56.844800417298" lon="14.764228855782">
        <ele>167.2</ele>
        <time>2020-01-18T07:58:55Z</time>
      </trkpt>
      <trkpt lat="56.844950872403" lon="14.764416945618">
        <ele>166.2</ele>
        <time>2020-01-18T07:59:02Z</time>
      </trkpt>
      <trkpt lat="56.84512882014" lon="14.764525239766">
        <ele>166</ele>
        <time>2020-01-18T07:59:08Z</time>
      </trkpt>
      <trkpt lat="56.84531825108" lon="14.764637389588">
        <ele>166.4</ele>
        <time>2020-01-18T07:59:14Z</time>
      </trkpt>
      <trkpt lat="56.845503323432" lon="14.764693799775">
        <ele>165.8</ele>
        <time>2020-01-18T07:59:19Z</time>
      </trkpt>
      <trkpt lat="56.845659813505" lon="14.76471433543">
        <ele>164.8</ele>
        <time>2020-01-18T07:59:23Z</time>
      </trkpt>
      <trkpt lat="56.845844969676" lon="14.764693045404">
        <ele>165.4</ele>
        <time>2020-01-18T07:59:28Z</time>
      </trkpt>
      <trkpt lat="56.845954521109" lon="14.764671252464">
        <ele>166</ele>
        <time>2020-01-18T07:59:31Z</time>
      </trkpt>
      <trkpt lat="56.846128445534" lon="14.764588271654">
        <ele>165</ele>
        <time>2020-01-18T07:59:36Z</time>
      </trkpt>
      <trkpt lat="56.846300442122" lon="14.764399343628">
        <ele>165.2</ele>
        <time>2020-01-18T07:59:42Z</time>
      </trkpt>
      <trkpt lat="56.84639951618" lon="14.76419381944">
        <ele>164.8</ele>
        <time>2020-01-18T07:59:47Z</time>
      </trkpt>
      <trkpt lat="56.846405299691" lon="14.763869691367">
        <ele>165.2</ele>
        <time>2020-01-18T07:59:52Z</time>
      </trkpt>
      <trkpt lat="56.846436145083" lon="14.763545814751">
        <ele>165.2</ele>
        <time>2020-01-18T07:59:57Z</time>
      </trkpt>
      <trkpt lat="56.846464811181" lon="14.763507593287">
        <ele>164.8</ele>
        <time>2020-01-18T07:59:58Z</time>
      </trkpt>
      <trkpt lat="56.846670083912" lon="14.763495858627">
        <ele>165.2</ele>
        <time>2020-01-18T08:00:04Z</time>
      </trkpt>
      <trkpt lat="56.846878709403" lon="14.763506336002">
        <ele>165</ele>
        <time>2020-01-18T08:00:11Z</time>
      </trkpt>
      <trkpt lat="56.847065541954" lon="14.763524021811">
        <ele>165.2</ele>
        <time>2020-01-18T08:00:17Z</time>
      </trkpt>
      <trkpt lat="56.847246171899" lon="14.763639692031">
        <ele>165.6</ele>
        <time>2020-01-18T08:00:23Z</time>
      </trkpt>
      <trkpt lat="56.8474371954" lon="14.763737089709">
        <ele>164.8</ele>
        <time>2020-01-18T08:00:29Z</time>
      </trkpt>
      <trkpt lat="56.84761908263" lon="14.763643799162">
        <ele>165.2</ele>
        <time>2020-01-18T08:00:34Z</time>
      </trkpt>
      <trkpt lat="56.847691250789" lon="14.763303494022">
        <ele>164.6</ele>
        <time>2020-01-18T08:00:41Z</time>
      </trkpt>
      <trkpt lat="56.847723437285" lon="14.762972828067">
        <ele>165.4</ele>
        <time>2020-01-18T08:00:47Z</time>
      </trkpt>
      <trkpt lat="56.847760485283" lon="14.76285355363">
        <ele>166</ele>
        <time>2020-01-18T08:00:49Z</time>
      </trkpt>
      <trkpt lat="56.8478479085" lon="14.762783480946">
        <ele>167</ele>
        <time>2020-01-18T08:00:52Z</time>
      </trkpt>
      <trkpt lat="56.847960477417" lon="14.762729669148">
        <ele>168.2</ele>
        <time>2020-01-18T08:00:56Z</time>
      </trkpt>
      <trkpt lat="56.848055192887" lon="14.762452982629">
        <ele>168.8</ele>
        <time>2020-01-18T08:01:01Z</time>
      </trkpt>
      <trkpt lat="56.848160218094" lon="14.762256678531">
        <ele>168.4</ele>
        <time>2020-01-18T08:01:05Z</time>
      </trkpt>
      <trkpt lat="56.848356019278" lon="14.762292888339">
        <ele>167.8</ele>
        <time>2020-01-18T08:01:11Z</time>
      </trkpt>
      <trkpt lat="56.848554418851" lon="14.762247206984">
        <ele>167.6</ele>
        <time>2020-01-18T08:01:17Z</time>
      </trkpt>
      <trkpt lat="56.848732450407" lon="14.762111001109">
        <ele>168</ele>
        <time>2020-01-18T08:01:23Z</time>
      </trkpt>
      <trkpt lat="56.84892498265" lon="14.762016956191">
        <ele>167.8</ele>
        <time>2020-01-18T08:01:29Z</time>
      </trkpt>
      <trkpt lat="56.84911860454" lon="14.761945039489">
        <ele>168</ele>
        <time>2020-01-18T08:01:35Z</time>
      </trkpt>
      <trkpt lat="56.849293199517" lon="14.761875721176">
        <ele>168</ele>
        <time>2020-01-18T08:01:41Z</time>
      </trkpt>
      <trkpt lat="56.849485480303" lon="14.761821406464">
        <ele>167.2</ele>
        <time>2020-01-18T08:01:46Z</time>
      </trkpt>
      <trkpt lat="56.849570808045" lon="14.761810593813">
        <ele>167</ele>
        <time>2020-01-18T08:01:49Z</time>
      </trkpt>
      <trkpt lat="56.849779182079" lon="14.761822496111">
        <ele>166.8</ele>
        <time>2020-01-18T08:01:55Z</time>
      </trkpt>
      <trkpt lat="56.849987975208" lon="14.761782011534">
        <ele>166.8</ele>
        <time>2020-01-18T08:02:01Z</time>
      </trkpt>
      <trkpt lat="56.850168186058" lon="14.761738090378">
        <ele>166.6</ele>
        <time>2020-01-18T08:02:06Z</time>
      </trkpt>
      <trkpt lat="56.850350827659" lon="14.761709256642">
        <ele>166.4</ele>
        <time>2020-01-18T08:02:11Z</time>
      </trkpt>
      <trkpt lat="56.850513017424" lon="14.761780083697">
        <ele>166</ele>
        <time>2020-01-18T08:02:16Z</time>
      </trkpt>
      <trkpt lat="56.85071535649" lon="14.76183850554">
        <ele>165.6</ele>
        <time>2020-01-18T08:02:22Z</time>
      </trkpt>
      <trkpt lat="56.850904955068" lon="14.761875888814">
        <ele>165.2</ele>
        <time>2020-01-18T08:02:28Z</time>
      </trkpt>
      <trkpt lat="56.850940075229" lon="14.761875553538">
        <ele>165</ele>
        <time>2020-01-18T08:02:29Z</time>
      </trkpt>
      <trkpt lat="56.851153897498" lon="14.761873038968">
        <ele>165.4</ele>
        <time>2020-01-18T08:02:35Z</time>
      </trkpt>
      <trkpt lat="56.851337880203" lon="14.76194914662">
        <ele>164.6</ele>
        <time>2020-01-18T08:02:41Z</time>
      </trkpt>
      <trkpt lat="56.851542817658" lon="14.762028187937">
        <ele>164.4</ele>
        <time>2020-01-18T08:02:47Z</time>
      </trkpt>
      <trkpt lat="56.851729147295" lon="14.762078395518">
        <ele>164.4</ele>
        <time>2020-01-18T08:02:53Z</time>
      </trkpt>
      <trkpt lat="56.851930396714" lon="14.762082502649">
        <ele>165.2</ele>
        <time>2020-01-18T08:02:59Z</time>
      </trkpt>
      <trkpt lat="56.852141033861" lon="14.762083592296">
        <ele>165.2</ele>
        <time>2020-01-18T08:03:05Z</time>
      </trkpt>
      <trkpt lat="56.852349156438" lon="14.762142684691">
        <ele>164.8</ele>
        <time>2020-01-18T08:03:11Z</time>
      </trkpt>
      <trkpt lat="56.852530456935" lon="14.762148384383">
        <ele>164.6</ele>
        <time>2020-01-18T08:03:16Z</time>
      </trkpt>
      <trkpt lat="56.852717708581" lon="14.762099601725">
        <ele>164</ele>
        <time>2020-01-18T08:03:21Z</time>
      </trkpt>
      <trkpt lat="56.852750817086" lon="14.762084681943">
        <ele>163.8</ele>
        <time>2020-01-18T08:03:22Z</time>
      </trkpt>
      <trkpt lat="56.852885681857" lon="14.762147378555">
        <ele>163.8</ele>
        <time>2020-01-18T08:03:26Z</time>
      </trkpt>
      <trkpt lat="56.852903702942" lon="14.762251817029">
        <ele>163.6</ele>
        <time>2020-01-18T08:03:28Z</time>
      </trkpt>
      <trkpt lat="56.852871432627" lon="14.762600587888">
        <ele>163.2</ele>
        <time>2020-01-18T08:03:34Z</time>
      </trkpt>
      <trkpt lat="56.852849052954" lon="14.762983556899">
        <ele>163.8</ele>
        <time>2020-01-18T08:03:41Z</time>
      </trkpt>
      <trkpt lat="56.852842934167" lon="14.763270636974">
        <ele>165</ele>
        <time>2020-01-18T08:03:46Z</time>
      </trkpt>
      <trkpt lat="56.852865649116" lon="14.763594681228">
        <ele>165.4</ele>
        <time>2020-01-18T08:03:52Z</time>
      </trkpt>
      <trkpt lat="56.852905295503" lon="14.76396918452">
        <ele>165.6</ele>
        <time>2020-01-18T08:03:58Z</time>
      </trkpt>
      <trkpt lat="56.852968243572" lon="14.764331785514">
        <ele>165.6</ele>
        <time>2020-01-18T08:04:04Z</time>
      </trkpt>
      <trkpt lat="56.852968159753" lon="14.764662451469">
        <ele>164.6</ele>
        <time>2020-01-18T08:04:09Z</time>
      </trkpt>
      <trkpt lat="56.852939158379" lon="14.765029327232">
        <ele>164.2</ele>
        <time>2020-01-18T08:04:14Z</time>
      </trkpt>
      <trkpt lat="56.852918622724" lon="14.765235019058">
        <ele>163.6</ele>
        <time>2020-01-18T08:04:17Z</time>
      </trkpt>
      <trkpt lat="56.852923568045" lon="14.765571887619">
        <ele>163.2</ele>
        <time>2020-01-18T08:04:22Z</time>
      </trkpt>
      <trkpt lat="56.853042591025" lon="14.765849999061">
        <ele>162.6</ele>
        <time>2020-01-18T08:04:28Z</time>
      </trkpt>
      <trkpt lat="56.853232860155" lon="14.765984863832">
        <ele>162.6</ele>
        <time>2020-01-18T08:04:35Z</time>
      </trkpt>
      <trkpt lat="56.85341516648" lon="14.765977739217">
        <ele>163</ele>
        <time>2020-01-18T08:04:42Z</time>
      </trkpt>
      <trkpt lat="56.853596131701" lon="14.76611578911">
        <ele>162.2</ele>
        <time>2020-01-18T08:04:48Z</time>
      </trkpt>
      <trkpt lat="56.853768463565" lon="14.766300945281">
        <ele>162.4</ele>
        <time>2020-01-18T08:04:54Z</time>
      </trkpt>
      <trkpt lat="56.853941885076" lon="14.766462296856">
        <ele>163.2</ele>
        <time>2020-01-18T08:04:59Z</time>
      </trkpt>
      <trkpt lat="56.854110528904" lon="14.766630773046">
        <ele>163.2</ele>
        <time>2020-01-18T08:05:05Z</time>
      </trkpt>
      <trkpt lat="56.854297445274" lon="14.766754573709">
        <ele>163.2</ele>
        <time>2020-01-18T08:05:11Z</time>
      </trkpt>
      <trkpt lat="56.854486205662" lon="14.766892539783">
        <ele>163.4</ele>
        <time>2020-01-18T08:05:18Z</time>
      </trkpt>
      <trkpt lat="56.854622495356" lon="14.766963450657">
        <ele>163.6</ele>
        <time>2020-01-18T08:05:22Z</time>
      </trkpt>
      <trkpt lat="56.854810082278" lon="14.767037462834">
        <ele>163.6</ele>
        <time>2020-01-18T08:05:29Z</time>
      </trkpt>
      <trkpt lat="56.855020132692" lon="14.767056070652">
        <ele>164.2</ele>
        <time>2020-01-18T08:05:37Z</time>
      </trkpt>
      <trkpt lat="56.855232446219" lon="14.767174925994">
        <ele>163.2</ele>
        <time>2020-01-18T08:05:43Z</time>
      </trkpt>
      <trkpt lat="56.855365466972" lon="14.767226558498">
        <ele>163.6</ele>
        <time>2020-01-18T08:05:47Z</time>
      </trkpt>
      <trkpt lat="56.855548024754" lon="14.767253296759">
        <ele>163.4</ele>
        <time>2020-01-18T08:05:52Z</time>
      </trkpt>
      <trkpt lat="56.855732510373" lon="14.767331667524">
        <ele>163</ele>
        <time>2020-01-18T08:05:58Z</time>
      </trkpt>
      <trkpt lat="56.855946332642" lon="14.767344408012">
        <ele>163.2</ele>
        <time>2020-01-18T08:06:03Z</time>
      </trkpt>
      <trkpt lat="56.856149006984" lon="14.76728003502">
        <ele>162.8</ele>
        <time>2020-01-18T08:06:08Z</time>
      </trkpt>
      <trkpt lat="56.856188318095" lon="14.767254973139">
        <ele>162.4</ele>
        <time>2020-01-18T08:06:09Z</time>
      </trkpt>
      <trkpt lat="56.856352519516" lon="14.767116839427">
        <ele>162.2</ele>
        <time>2020-01-18T08:06:14Z</time>
      </trkpt>
      <trkpt lat="56.856514960738" lon="14.766910979963">
        <ele>161.4</ele>
        <time>2020-01-18T08:06:20Z</time>
      </trkpt>
      <trkpt lat="56.856657704495" lon="14.766691122726">
        <ele>162</ele>
        <time>2020-01-18T08:06:26Z</time>
      </trkpt>
      <trkpt lat="56.856828862893" lon="14.766501188872">
        <ele>161.2</ele>
        <time>2020-01-18T08:06:33Z</time>
      </trkpt>
      <trkpt lat="56.857038326574" lon="14.766413849474">
        <ele>161.8</ele>
        <time>2020-01-18T08:06:40Z</time>
      </trkpt>
      <trkpt lat="56.857231026455" lon="14.766383004082">
        <ele>161.4</ele>
        <time>2020-01-18T08:06:46Z</time>
      </trkpt>
      <trkpt lat="56.857434036073" lon="14.766379064589">
        <ele>161.6</ele>
        <time>2020-01-18T08:06:51Z</time>
      </trkpt>
      <trkpt lat="56.857631178361" lon="14.766488113108">
        <ele>161.4</ele>
        <time>2020-01-18T08:06:57Z</time>
      </trkpt>
      <trkpt lat="56.857806192433" lon="14.766600179111">
        <ele>161.6</ele>
        <time>2020-01-18T08:07:02Z</time>
      </trkpt>
      <trkpt lat="56.857985732731" lon="14.766663630094">
        <ele>161.8</ele>
        <time>2020-01-18T08:07:08Z</time>
      </trkpt>
      <trkpt lat="56.858184719037" lon="14.766551983186">
        <ele>161.8</ele>
        <time>2020-01-18T08:07:14Z</time>
      </trkpt>
      <trkpt lat="56.85827080115" lon="14.766484089796">
        <ele>162.4</ele>
        <time>2020-01-18T08:07:17Z</time>
      </trkpt>
      <trkpt lat="56.858427123585" lon="14.766322067669">
        <ele>162</ele>
        <time>2020-01-18T08:07:22Z</time>
      </trkpt>
      <trkpt lat="56.858608256444" lon="14.766400857529">
        <ele>162.8</ele>
        <time>2020-01-18T08:07:28Z</time>
      </trkpt>
      <trkpt lat="56.858762986318" lon="14.766603028957">
        <ele>162.2</ele>
        <time>2020-01-18T08:07:33Z</time>
      </trkpt>
      <trkpt lat="56.858952584896" lon="14.766772762432">
        <ele>162.2</ele>
        <time>2020-01-18T08:07:37Z</time>
      </trkpt>
      <trkpt lat="56.859091975893" lon="14.767001169207">
        <ele>162</ele>
        <time>2020-01-18T08:07:42Z</time>
      </trkpt>
      <trkpt lat="56.859225918655" lon="14.767263103582">
        <ele>162.2</ele>
        <time>2020-01-18T08:07:48Z</time>
      </trkpt>
      <trkpt lat="56.859350892784" lon="14.76755663772">
        <ele>161.4</ele>
        <time>2020-01-18T08:07:55Z</time>
      </trkpt>
      <trkpt lat="56.859467987927" lon="14.767822092493">
        <ele>161.8</ele>
        <time>2020-01-18T08:08:01Z</time>
      </trkpt>
      <trkpt lat="56.859589190201" lon="14.76811068131">
        <ele>161</ele>
        <time>2020-01-18T08:08:07Z</time>
      </trkpt>
      <trkpt lat="56.85967728397" lon="14.768439754704">
        <ele>160.8</ele>
        <time>2020-01-18T08:08:13Z</time>
      </trkpt>
      <trkpt lat="56.859616599014" lon="14.768777209998">
        <ele>161.2</ele>
        <time>2020-01-18T08:08:19Z</time>
      </trkpt>
      <trkpt lat="56.859603271793" lon="14.768890365648">
        <ele>161.4</ele>
        <time>2020-01-18T08:08:21Z</time>
      </trkpt>
      <trkpt lat="56.859582400862" lon="14.769067391376">
        <ele>162</ele>
        <time>2020-01-18T08:08:25Z</time>
      </trkpt>
      <trkpt lat="56.859575527704" lon="14.769408786163">
        <ele>161</ele>
        <time>2020-01-18T08:08:32Z</time>
      </trkpt>
      <trkpt lat="56.859604277621" lon="14.769780439609">
        <ele>161</ele>
        <time>2020-01-18T08:08:38Z</time>
      </trkpt>
      <trkpt lat="56.859625400009" lon="14.769920501158">
        <ele>161</ele>
        <time>2020-01-18T08:08:40Z</time>
      </trkpt>
      <trkpt lat="56.85971500252" lon="14.770240019186">
        <ele>161</ele>
        <time>2020-01-18T08:08:46Z</time>
      </trkpt>
      <trkpt lat="56.859843916142" lon="14.77049449367">
        <ele>161.4</ele>
        <time>2020-01-18T08:08:52Z</time>
      </trkpt>
      <trkpt lat="56.859944247485" lon="14.77062022217">
        <ele>162.6</ele>
        <time>2020-01-18T08:08:57Z</time>
      </trkpt>
      <trkpt lat="56.860104677051" lon="14.770857178483">
        <ele>163.4</ele>
        <time>2020-01-18T08:09:03Z</time>
      </trkpt>
      <trkpt lat="56.860107107802" lon="14.770969579762">
        <ele>163.8</ele>
        <time>2020-01-18T08:09:05Z</time>
      </trkpt>
      <trkpt lat="56.860078944618" lon="14.771317931526">
        <ele>164.2</ele>
        <time>2020-01-18T08:09:11Z</time>
      </trkpt>
      <trkpt lat="56.860071652365" lon="14.771606687981">
        <ele>164.8</ele>
        <time>2020-01-18T08:09:16Z</time>
      </trkpt>
      <trkpt lat="56.860073999297" lon="14.771793855808">
        <ele>164.8</ele>
        <time>2020-01-18T08:09:19Z</time>
      </trkpt>
      <trkpt lat="56.860129990389" lon="14.772159055191">
        <ele>166</ele>
        <time>2020-01-18T08:09:26Z</time>
      </trkpt>
      <trkpt lat="56.860169720595" lon="14.77251788433">
        <ele>166.8</ele>
        <time>2020-01-18T08:09:33Z</time>
      </trkpt>
      <trkpt lat="56.860236021424" lon="14.7728640568">
        <ele>167</ele>
        <time>2020-01-18T08:09:38Z</time>
      </trkpt>
      <trkpt lat="56.860329563428" lon="14.773187849597">
        <ele>166.8</ele>
        <time>2020-01-18T08:09:43Z</time>
      </trkpt>
      <trkpt lat="56.860437019386" lon="14.773470571084">
        <ele>166.2</ele>
        <time>2020-01-18T08:09:48Z</time>
      </trkpt>
      <trkpt lat="56.860551683778" lon="14.773755388046">
        <ele>165.6</ele>
        <time>2020-01-18T08:09:53Z</time>
      </trkpt>
      <trkpt lat="56.860699540494" lon="14.773961331329">
        <ele>165.6</ele>
        <time>2020-01-18T08:09:59Z</time>
      </trkpt>
      <trkpt lat="56.86087589567" lon="14.774013131471">
        <ele>165</ele>
        <time>2020-01-18T08:10:05Z</time>
      </trkpt>
      <trkpt lat="56.861072954139" lon="14.773943058787">
        <ele>165</ele>
        <time>2020-01-18T08:10:16Z</time>
      </trkpt>
      <trkpt lat="56.861089298844" lon="14.773960157863">
        <ele>165</ele>
        <time>2020-01-18T08:10:17Z</time>
      </trkpt>
      <trkpt lat="56.86120278977" lon="14.774049676555">
        <ele>164.8</ele>
        <time>2020-01-18T08:10:22Z</time>
      </trkpt>
      <trkpt lat="56.861298259611" lon="14.774371038601">
        <ele>165.2</ele>
        <time>2020-01-18T08:10:30Z</time>
      </trkpt>
      <trkpt lat="56.861338073636" lon="14.774429711901">
        <ele>165.2</ele>
        <time>2020-01-18T08:10:31Z</time>
      </trkpt>
      <trkpt lat="56.861461036109" lon="14.774710924646">
        <ele>165.6</ele>
        <time>2020-01-18T08:10:36Z</time>
      </trkpt>
      <trkpt lat="56.861575700501" lon="14.774974116306">
        <ele>165.6</ele>
        <time>2020-01-18T08:10:41Z</time>
      </trkpt>
      <trkpt lat="56.861647617203" lon="14.77510872962">
        <ele>166</ele>
        <time>2020-01-18T08:10:44Z</time>
      </trkpt>
      <trkpt lat="56.861716013507" lon="14.775268991548">
        <ele>166.4</ele>
        <time>2020-01-18T08:10:48Z</time>
      </trkpt>
      <trkpt lat="56.861809052597" lon="14.775397234618">
        <ele>167.2</ele>
        <time>2020-01-18T08:10:52Z</time>
      </trkpt>
      <trkpt lat="56.861865462784" lon="14.775512821019">
        <ele>168.2</ele>
        <time>2020-01-18T08:10:55Z</time>
      </trkpt>
      <trkpt lat="56.861988425257" lon="14.775781880009">
        <ele>168.8</ele>
        <time>2020-01-18T08:10:59Z</time>
      </trkpt>
      <trkpt lat="56.862043326702" lon="14.776104331702">
        <ele>168</ele>
        <time>2020-01-18T08:11:05Z</time>
      </trkpt>
      <trkpt lat="56.862086577306" lon="14.77638110204">
        <ele>167</ele>
        <time>2020-01-18T08:11:10Z</time>
      </trkpt>
      <trkpt lat="56.862188585029" lon="14.776699111326">
        <ele>166.4</ele>
        <time>2020-01-18T08:11:16Z</time>
      </trkpt>
      <trkpt lat="56.862255807867" lon="14.776884351316">
        <ele>165.8</ele>
        <time>2020-01-18T08:11:20Z</time>
      </trkpt>
      <trkpt lat="56.862353373183" lon="14.777159277636">
        <ele>165.6</ele>
        <time>2020-01-18T08:11:25Z</time>
      </trkpt>
      <trkpt lat="56.862494943474" lon="14.777441999123">
        <ele>165.2</ele>
        <time>2020-01-18T08:11:31Z</time>
      </trkpt>
      <trkpt lat="56.862624946743" lon="14.777716673986">
        <ele>164.8</ele>
        <time>2020-01-18T08:11:37Z</time>
      </trkpt>
      <trkpt lat="56.862758218953" lon="14.778002245319">
        <ele>165.4</ele>
        <time>2020-01-18T08:11:42Z</time>
      </trkpt>
      <trkpt lat="56.862863495617" lon="14.778284128616">
        <ele>166</ele>
        <time>2020-01-18T08:11:48Z</time>
      </trkpt>
      <trkpt lat="56.862982015683" lon="14.778591744346">
        <ele>165.6</ele>
        <time>2020-01-18T08:11:53Z</time>
      </trkpt>
      <trkpt lat="56.863072204927" lon="14.778874130557">
        <ele>165</ele>
        <time>2020-01-18T08:11:59Z</time>
      </trkpt>
      <trkpt lat="56.863088884908" lon="14.778911681469">
        <ele>164.8</ele>
        <time>2020-01-18T08:12:00Z</time>
      </trkpt>
      <trkpt lat="56.863230119923" lon="14.779116451286">
        <ele>165</ele>
        <time>2020-01-18T08:12:06Z</time>
      </trkpt>
      <trkpt lat="56.863407648565" lon="14.779296494498">
        <ele>165.8</ele>
        <time>2020-01-18T08:12:12Z</time>
      </trkpt>
      <trkpt lat="56.86346925553" lon="14.7793516474">
        <ele>166</ele>
        <time>2020-01-18T08:12:14Z</time>
      </trkpt>
      <trkpt lat="56.86363354077" lon="14.779530936241">
        <ele>165.4</ele>
        <time>2020-01-18T08:12:19Z</time>
      </trkpt>
      <trkpt lat="56.863736051407" lon="14.779643002244">
        <ele>165</ele>
        <time>2020-01-18T08:12:22Z</time>
      </trkpt>
      <trkpt lat="56.863811823783" lon="14.779758085731">
        <ele>163.8</ele>
        <time>2020-01-18T08:12:25Z</time>
      </trkpt>
      <trkpt lat="56.863930762944" lon="14.779927232473">
        <ele>162.8</ele>
        <time>2020-01-18T08:12:30Z</time>
      </trkpt>
      <trkpt lat="56.864119439513" lon="14.780094116102">
        <ele>161.8</ele>
        <time>2020-01-18T08:12:35Z</time>
      </trkpt>
      <trkpt lat="56.864302751666" lon="14.780035526621">
        <ele>162</ele>
        <time>2020-01-18T08:12:40Z</time>
      </trkpt>
      <trkpt lat="56.864360838233" lon="14.780061678149">
        <ele>162</ele>
        <time>2020-01-18T08:12:42Z</time>
      </trkpt>
      <trkpt lat="56.864416577868" lon="14.780167960641">
        <ele>162.8</ele>
        <time>2020-01-18T08:12:45Z</time>
      </trkpt>
      <trkpt lat="56.864472736598" lon="14.780328474026">
        <ele>163.4</ele>
        <time>2020-01-18T08:12:49Z</time>
      </trkpt>
      <trkpt lat="56.864577258891" lon="14.780641202715">
        <ele>162.8</ele>
        <time>2020-01-18T08:12:56Z</time>
      </trkpt>
      <trkpt lat="56.86469301293" lon="14.780928785704">
        <ele>163.6</ele>
        <time>2020-01-18T08:13:02Z</time>
      </trkpt>
      <trkpt lat="56.864774065903" lon="14.781098938274">
        <ele>163.8</ele>
        <time>2020-01-18T08:13:05Z</time>
      </trkpt>
      <trkpt lat="56.864896776919" lon="14.781386102168">
        <ele>163.4</ele>
        <time>2020-01-18T08:13:10Z</time>
      </trkpt>
      <trkpt lat="56.865012530958" lon="14.78165918447">
        <ele>163</ele>
        <time>2020-01-18T08:13:15Z</time>
      </trkpt>
      <trkpt lat="56.865121244201" lon="14.781962357793">
        <ele>163.2</ele>
        <time>2020-01-18T08:13:21Z</time>
      </trkpt>
      <trkpt lat="56.865211181988" lon="14.78228950335">
        <ele>164.4</ele>
        <time>2020-01-18T08:13:27Z</time>
      </trkpt>
      <trkpt lat="56.865311345693" lon="14.782632406879">
        <ele>163.8</ele>
        <time>2020-01-18T08:13:34Z</time>
      </trkpt>
      <trkpt lat="56.865414107787" lon="14.782916972384">
        <ele>164</ele>
        <time>2020-01-18T08:13:39Z</time>
      </trkpt>
      <trkpt lat="56.865529358912" lon="14.783200783518">
        <ele>163.8</ele>
        <time>2020-01-18T08:13:44Z</time>
      </trkpt>
      <trkpt lat="56.86564184401" lon="14.783530778921">
        <ele>163.2</ele>
        <time>2020-01-18T08:13:50Z</time>
      </trkpt>
      <trkpt lat="56.865741253344" lon="14.783782738835">
        <ele>162.8</ele>
        <time>2020-01-18T08:13:55Z</time>
      </trkpt>
      <trkpt lat="56.86582624581" lon="14.784103597967">
        <ele>162.6</ele>
        <time>2020-01-18T08:14:01Z</time>
      </trkpt>
      <trkpt lat="56.865872849174" lon="14.78434390704">
        <ele>161.8</ele>
        <time>2020-01-18T08:14:05Z</time>
      </trkpt>
      <trkpt lat="56.865841836144" lon="14.784697371763">
        <ele>161.6</ele>
        <time>2020-01-18T08:14:12Z</time>
      </trkpt>
      <trkpt lat="56.865830017665" lon="14.784751351199">
        <ele>161.6</ele>
        <time>2020-01-18T08:14:13Z</time>
      </trkpt>
      <trkpt lat="56.865783079025" lon="14.785068270838">
        <ele>162.8</ele>
        <time>2020-01-18T08:14:19Z</time>
      </trkpt>
      <trkpt lat="56.865764722664" lon="14.785397930965">
        <ele>162.6</ele>
        <time>2020-01-18T08:14:24Z</time>
      </trkpt>
      <trkpt lat="56.865759022972" lon="14.785578057996">
        <ele>161.6</ele>
        <time>2020-01-18T08:14:27Z</time>
      </trkpt>
      <trkpt lat="56.865724657182" lon="14.785912495806">
        <ele>161.6</ele>
        <time>2020-01-18T08:14:33Z</time>
      </trkpt>
      <trkpt lat="56.865699595301" lon="14.786113242311">
        <ele>161.8</ele>
        <time>2020-01-18T08:14:36Z</time>
      </trkpt>
      <trkpt lat="56.865597168483" lon="14.786480285712">
        <ele>162</ele>
        <time>2020-01-18T08:14:42Z</time>
      </trkpt>
      <trkpt lat="56.865557103001" lon="14.786818663015">
        <ele>161.8</ele>
        <time>2020-01-18T08:14:47Z</time>
      </trkpt>
      <trkpt lat="56.86548258791" lon="14.787152849368">
        <ele>162.2</ele>
        <time>2020-01-18T08:14:53Z</time>
      </trkpt>
      <trkpt lat="56.865430368673" lon="14.787340101014">
        <ele>162.8</ele>
        <time>2020-01-18T08:14:56Z</time>
      </trkpt>
      <trkpt lat="56.865355937401" lon="14.787559874432">
        <ele>164</ele>
        <time>2020-01-18T08:15:01Z</time>
      </trkpt>
      <trkpt lat="56.865272621315" lon="14.787854665855">
        <ele>165</ele>
        <time>2020-01-18T08:15:07Z</time>
      </trkpt>
      <trkpt lat="56.865263736501" lon="14.787907220368">
        <ele>165</ele>
        <time>2020-01-18T08:15:08Z</time>
      </trkpt>
      <trkpt lat="56.865238590801" lon="14.788235455572">
        <ele>165.4</ele>
        <time>2020-01-18T08:15:14Z</time>
      </trkpt>
      <trkpt lat="56.865240434819" lon="14.788276443063">
        <ele>165.2</ele>
        <time>2020-01-18T08:15:15Z</time>
      </trkpt>
      <trkpt lat="56.865369180803" lon="14.788544412406">
        <ele>165.8</ele>
        <time>2020-01-18T08:15:23Z</time>
      </trkpt>
      <trkpt lat="56.865416454719" lon="14.788608366303">
        <ele>166</ele>
        <time>2020-01-18T08:15:25Z</time>
      </trkpt>
      <trkpt lat="56.865482168815" lon="14.788654466753">
        <ele>166.2</ele>
        <time>2020-01-18T08:15:27Z</time>
      </trkpt>
      <trkpt lat="56.865665397149" lon="14.788791007904">
        <ele>166.8</ele>
        <time>2020-01-18T08:15:33Z</time>
      </trkpt>
      <trkpt lat="56.865869999328" lon="14.788912713092">
        <ele>166.8</ele>
        <time>2020-01-18T08:15:39Z</time>
      </trkpt>
      <trkpt lat="56.86602238227" lon="14.788986054717">
        <ele>167.4</ele>
        <time>2020-01-18T08:15:44Z</time>
      </trkpt>
      <trkpt lat="56.866217512902" lon="14.78911404633">
        <ele>167.8</ele>
        <time>2020-01-18T08:15:50Z</time>
      </trkpt>
      <trkpt lat="56.86637945121" lon="14.789330550807">
        <ele>167.4</ele>
        <time>2020-01-18T08:15:57Z</time>
      </trkpt>
      <trkpt lat="56.866555135834" lon="14.789260226666">
        <ele>167.6</ele>
        <time>2020-01-18T08:16:04Z</time>
      </trkpt>
      <trkpt lat="56.866733921761" lon="14.789111699398">
        <ele>167.4</ele>
        <time>2020-01-18T08:16:10Z</time>
      </trkpt>
      <trkpt lat="56.866913797335" lon="14.788965435243">
        <ele>166.8</ele>
        <time>2020-01-18T08:16:16Z</time>
      </trkpt>
      <trkpt lat="56.866965932753" lon="14.788956969524">
        <ele>166.4</ele>
        <time>2020-01-18T08:16:18Z</time>
      </trkpt>
      <trkpt lat="56.867052601599" lon="14.789051014442">
        <ele>166.2</ele>
        <time>2020-01-18T08:16:22Z</time>
      </trkpt>
      <trkpt lat="56.867192579329" lon="14.789290233868">
        <ele>167</ele>
        <time>2020-01-18T08:16:28Z</time>
      </trkpt>
      <trkpt lat="56.86723356682" lon="14.789354774498">
        <ele>167.2</ele>
        <time>2020-01-18T08:16:29Z</time>
      </trkpt>
      <trkpt lat="56.86730313659" lon="14.789530291484">
        <ele>168.2</ele>
        <time>2020-01-18T08:16:32Z</time>
      </trkpt>
      <trkpt lat="56.867357367483" lon="14.789616457416">
        <ele>168.6</ele>
        <time>2020-01-18T08:16:34Z</time>
      </trkpt>
      <trkpt lat="56.867462979423" lon="14.789786023253">
        <ele>169</ele>
        <time>2020-01-18T08:16:39Z</time>
      </trkpt>
      <trkpt lat="56.867490723512" lon="14.78980555308">
        <ele>169.4</ele>
        <time>2020-01-18T08:16:40Z</time>
      </trkpt>
      <trkpt lat="56.867584265516" lon="14.78985919724">
        <ele>170.6</ele>
        <time>2020-01-18T08:16:44Z</time>
      </trkpt>
      <trkpt lat="56.867788783876" lon="14.789835560282">
        <ele>171.2</ele>
        <time>2020-01-18T08:16:51Z</time>
      </trkpt>
      <trkpt lat="56.867869166297" lon="14.789839583594">
        <ele>171.8</ele>
        <time>2020-01-18T08:16:54Z</time>
      </trkpt>
      <trkpt lat="56.867984165965" lon="14.789806223632">
        <ele>173</ele>
        <time>2020-01-18T08:16:58Z</time>
      </trkpt>
      <trkpt lat="56.868163622444" lon="14.789716034388">
        <ele>173.4</ele>
        <time>2020-01-18T08:17:06Z</time>
      </trkpt>
      <trkpt lat="56.868278705931" lon="14.789624168764">
        <ele>173.4</ele>
        <time>2020-01-18T08:17:11Z</time>
      </trkpt>
      <trkpt lat="56.868444583732" lon="14.789827597477">
        <ele>173</ele>
        <time>2020-01-18T08:17:17Z</time>
      </trkpt>
      <trkpt lat="56.868646084608" lon="14.789985009559">
        <ele>173.2</ele>
        <time>2020-01-18T08:17:22Z</time>
      </trkpt>
      <trkpt lat="56.868790840021" lon="14.790119622873">
        <ele>172.8</ele>
        <time>2020-01-18T08:17:26Z</time>
      </trkpt>
      <trkpt lat="56.868861750895" lon="14.790238478215">
        <ele>171.8</ele>
        <time>2020-01-18T08:17:28Z</time>
      </trkpt>
      <trkpt lat="56.868916903797" lon="14.790358507023">
        <ele>170.4</ele>
        <time>2020-01-18T08:17:30Z</time>
      </trkpt>
      <trkpt lat="56.868959986763" lon="14.790477110908">
        <ele>169.2</ele>
        <time>2020-01-18T08:17:32Z</time>
      </trkpt>
      <trkpt lat="56.869029891809" lon="14.790605605435">
        <ele>167.6</ele>
        <time>2020-01-18T08:17:34Z</time>
      </trkpt>
      <trkpt lat="56.869097785199" lon="14.790707864615">
        <ele>166.4</ele>
        <time>2020-01-18T08:17:36Z</time>
      </trkpt>
      <trkpt lat="56.869198870913" lon="14.79085580515">
        <ele>165</ele>
        <time>2020-01-18T08:17:39Z</time>
      </trkpt>
      <trkpt lat="56.869289479252" lon="14.790980192546">
        <ele>164</ele>
        <time>2020-01-18T08:17:42Z</time>
      </trkpt>
      <trkpt lat="56.869344380697" lon="14.791016569992">
        <ele>163.8</ele>
        <time>2020-01-18T08:17:44Z</time>
      </trkpt>
      <trkpt lat="56.869446891334" lon="14.790750528486">
        <ele>164</ele>
        <time>2020-01-18T08:17:50Z</time>
      </trkpt>
      <trkpt lat="56.869528950135" lon="14.790401673808">
        <ele>163</ele>
        <time>2020-01-18T08:17:56Z</time>
      </trkpt>
      <trkpt lat="56.869546719763" lon="14.790348784019">
        <ele>163</ele>
        <time>2020-01-18T08:17:57Z</time>
      </trkpt>
      <trkpt lat="56.869624336157" lon="14.790030942371">
        <ele>163</ele>
        <time>2020-01-18T08:18:03Z</time>
      </trkpt>
      <trkpt lat="56.869704886216" lon="14.789703545357">
        <ele>163</ele>
        <time>2020-01-18T08:18:09Z</time>
      </trkpt>
      <trkpt lat="56.869776719099" lon="14.789363324036">
        <ele>162.8</ele>
        <time>2020-01-18T08:18:15Z</time>
      </trkpt>
      <trkpt lat="56.869837068779" lon="14.789041542895">
        <ele>162</ele>
        <time>2020-01-18T08:18:21Z</time>
      </trkpt>
      <trkpt lat="56.86990152559" lon="14.78902352181">
        <ele>161.8</ele>
        <time>2020-01-18T08:18:23Z</time>
      </trkpt>
      <trkpt lat="56.870032199411" lon="14.789121422402">
        <ele>163</ele>
        <time>2020-01-18T08:18:28Z</time>
      </trkpt>
      <trkpt lat="56.870221127437" lon="14.789274475896">
        <ele>163.2</ele>
        <time>2020-01-18T08:18:35Z</time>
      </trkpt>
      <trkpt lat="56.870389100713" lon="14.789417806386">
        <ele>164</ele>
        <time>2020-01-18T08:18:41Z</time>
      </trkpt>
      <trkpt lat="56.870575681807" lon="14.789585276748">
        <ele>165.2</ele>
        <time>2020-01-18T08:18:47Z</time>
      </trkpt>
      <trkpt lat="56.870704846886" lon="14.78972257227">
        <ele>166.4</ele>
        <time>2020-01-18T08:18:51Z</time>
      </trkpt>
      <trkpt lat="56.870809033903" lon="14.789811001315">
        <ele>167.6</ele>
        <time>2020-01-18T08:18:54Z</time>
      </trkpt>
      <trkpt lat="56.870970301659" lon="14.789980567152">
        <ele>168.6</ele>
        <time>2020-01-18T08:18:59Z</time>
      </trkpt>
      <trkpt lat="56.871095191969" lon="14.790120796339">
        <ele>168.6</ele>
        <time>2020-01-18T08:19:03Z</time>
      </trkpt>
      <trkpt lat="56.871256208268" lon="14.790308383261">
        <ele>169.2</ele>
        <time>2020-01-18T08:19:09Z</time>
      </trkpt>
      <trkpt lat="56.87130800841" lon="14.790385245284">
        <ele>169.6</ele>
        <time>2020-01-18T08:19:11Z</time>
      </trkpt>
    </trkseg>
  </trk>
</gpx>